Air Quality Table

TIMESTAMP NO2 SO2 PM10 PM2.5 CO TEMP HUM AIRPRES WS WD NO
2022-08-20 01:00 0 µg/m3 1.54 µg/m3 N/A N/A N/A 26.82 °C 69.62 % 1,010.35 mbar 4.2 m/s 283.95 Deg 0 µg/m3
2022-08-20 00:00 0 µg/m3 1.93 µg/m3 N/A N/A N/A 27.04 °C 70.48 % 1,010.52 mbar 4.46 m/s 289.33 Deg 0 µg/m3
2022-08-19 23:00 0 µg/m3 1.86 µg/m3 N/A N/A N/A 27.46 °C 67.16 % 1,010.31 mbar 5.04 m/s 279.84 Deg 0 µg/m3
2022-08-19 22:00 0 µg/m3 1.93 µg/m3 N/A N/A N/A 27.77 °C 64.46 % 1,010.08 mbar 3.8 m/s 282.18 Deg 0 µg/m3
2022-08-19 21:00 0 µg/m3 1.76 µg/m3 N/A N/A N/A 28.21 °C 61.45 % 1,009.94 mbar 4.85 m/s 271.2 Deg 0 µg/m3
2022-08-19 20:00 0 µg/m3 1.63 µg/m3 N/A N/A N/A 28.4 °C 60.44 % 1,009.53 mbar 4.76 m/s 277.99 Deg 0 µg/m3
2022-08-19 19:00 0 µg/m3 1.58 µg/m3 N/A N/A N/A 29.38 °C 49.9 % 1,008.78 mbar 4.87 m/s 268.93 Deg 0 µg/m3
2022-08-19 18:00 0 µg/m3 1.71 µg/m3 N/A N/A N/A 30.32 °C 43.87 % 1,008.71 mbar 3.88 m/s 266.39 Deg 0 µg/m3
2022-08-19 17:00 0 µg/m3 1.96 µg/m3 N/A N/A N/A 29.94 °C 53.46 % 1,009.02 mbar 3.74 m/s 290.72 Deg 0 µg/m3
2022-08-19 16:00 0 µg/m3 1.75 µg/m3 N/A N/A N/A 30.4 °C 61.78 % 1,008.88 mbar 2.76 m/s 322.1 Deg 0 µg/m3
2022-08-19 15:00 0 µg/m3 2.07 µg/m3 N/A N/A N/A 30.63 °C 64.51 % 1,008.79 mbar 2.81 m/s 327.93 Deg 0 µg/m3
2022-08-19 14:00 0 µg/m3 2.01 µg/m3 N/A N/A N/A 30.96 °C 69.13 % 1,009.00 mbar 2.61 m/s 286.64 Deg 0 µg/m3
2022-08-19 13:00 0 µg/m3 2.77 µg/m3 N/A N/A N/A 30.33 °C 72.71 % 1,009.06 mbar 2.06 m/s 299.63 Deg 0 µg/m3
2022-08-19 12:00 0 µg/m3 2.11 µg/m3 N/A N/A N/A 30.62 °C 73.98 % 1,009.16 mbar 0.88 m/s 205.65 Deg 0 µg/m3
2022-08-19 11:00 0 µg/m3 1.95 µg/m3 N/A N/A N/A 30.48 °C 75.18 % 1,009.63 mbar 1.35 m/s 318.98 Deg 0 µg/m3
2022-08-19 10:00 0 µg/m3 1.03 µg/m3 N/A N/A N/A 30.21 °C 76.96 % 1,009.54 mbar 1.9 m/s 331.98 Deg 0 µg/m3
2022-08-19 09:00 0 µg/m3 2.54 µg/m3 N/A N/A N/A 29.89 °C 77.44 % 1,009.55 mbar 2.42 m/s 251.28 Deg 0 µg/m3
2022-08-19 08:00 0 µg/m3 2.94 µg/m3 N/A N/A N/A 29.58 °C 81.21 % 1,009.02 mbar 1.9 m/s 298.59 Deg 0 µg/m3
2022-08-19 07:00 0 µg/m3 3.17 µg/m3 N/A N/A N/A 28.47 °C 84.58 % 1,008.83 mbar 2.33 m/s 214.1 Deg 0 µg/m3
2022-08-19 06:00 0 µg/m3 3.52 µg/m3 N/A N/A N/A 28.44 °C 85.46 % 1,008.43 mbar 1.5 m/s 192.73 Deg 0 µg/m3
2022-08-19 05:00 0 µg/m3 3.35 µg/m3 N/A N/A N/A 28.47 °C 82.91 % 1,008.29 mbar 1.27 m/s 190.12 Deg 0 µg/m3
2022-08-19 04:00 0 µg/m3 3.11 µg/m3 N/A N/A N/A 28.82 °C 78.82 % 1,007.94 mbar 2.55 m/s 213.54 Deg 0 µg/m3
2022-08-19 03:00 0 µg/m3 2.55 µg/m3 N/A N/A N/A 29.37 °C 74.03 % 1,007.89 mbar 0.7 m/s 228.09 Deg 0 µg/m3
2022-08-19 02:00 0 µg/m3 2.72 µg/m3 N/A N/A N/A 29.84 °C 72.1 % 1,008.69 mbar 0.82 m/s 272.14 Deg 0 µg/m3
2022-08-19 01:00 0 µg/m3 1.87 µg/m3 N/A N/A N/A 29.75 °C 74.2 % 1,008.47 mbar 2.8 m/s 239.04 Deg 0 µg/m3
2022-08-19 00:00 0 µg/m3 2 µg/m3 N/A N/A N/A 30.01 °C 73.72 % 1,007.95 mbar 2.16 m/s 184.31 Deg 0 µg/m3
2022-08-18 23:00 0 µg/m3 1.73 µg/m3 N/A N/A N/A 30.16 °C 73.08 % 1,008.10 mbar 2.6 m/s 194.3 Deg 0 µg/m3
2022-08-18 22:00 0 µg/m3 2.1 µg/m3 N/A N/A N/A 30.33 °C 75.37 % 1,007.88 mbar 2.69 m/s 178.68 Deg 0 µg/m3
2022-08-18 21:00 0 µg/m3 2.44 µg/m3 N/A N/A N/A 30.91 °C 71.33 % 1,007.94 mbar 1.61 m/s 188.77 Deg 0 µg/m3
2022-08-18 20:00 0 µg/m3 1.77 µg/m3 N/A N/A N/A 30.92 °C 69.92 % 1,007.92 mbar 2.43 m/s 180.89 Deg 0 µg/m3
2022-08-18 19:00 0 µg/m3 2.42 µg/m3 N/A N/A N/A 31.67 °C 64.87 % 1,007.75 mbar 2.04 m/s 185.37 Deg 0 µg/m3
2022-08-18 18:00 0 µg/m3 2.78 µg/m3 N/A N/A N/A 33.1 °C 57.34 % 1,008.05 mbar 1.77 m/s 191.78 Deg 0 µg/m3
2022-08-18 17:00 0 µg/m3 1.81 µg/m3 N/A N/A N/A 34.08 °C 52.23 % 1,008.53 mbar 1.81 m/s 183.27 Deg 0 µg/m3
2022-08-18 16:00 0 µg/m3 1.53 µg/m3 N/A N/A N/A 34.12 °C 52.25 % 1,008.83 mbar 2.56 m/s 184.06 Deg 0 µg/m3
2022-08-18 15:00 0 µg/m3 2.51 µg/m3 N/A N/A N/A 34 °C 54.24 % 1,009.23 mbar 2.64 m/s 185.31 Deg 0 µg/m3
2022-08-18 14:00 0 µg/m3 2.59 µg/m3 N/A N/A N/A 34.2 °C 55.28 % 1,009.79 mbar 1.88 m/s 190.02 Deg 0 µg/m3
2022-08-18 13:00 0 µg/m3 2.55 µg/m3 N/A N/A N/A 34.18 °C 52.13 % 1,010.13 mbar 1.78 m/s 194.88 Deg 0 µg/m3
2022-08-18 12:00 0 µg/m3 2.03 µg/m3 N/A N/A N/A 33.97 °C 56.38 % 1,010.29 mbar 1.03 m/s 248.89 Deg 0 µg/m3
2022-08-18 11:00 0 µg/m3 2.43 µg/m3 N/A N/A N/A 34.13 °C 54.37 % 1,010.33 mbar 0.87 m/s 199.23 Deg 0 µg/m3
2022-08-18 10:00 0 µg/m3 2.63 µg/m3 N/A N/A N/A 34.05 °C 43.36 % 1,010.70 mbar 1.06 m/s 222.83 Deg 0 µg/m3
2022-08-18 09:00 0 µg/m3 2.83 µg/m3 N/A N/A N/A 32.81 °C 47.41 % 1,010.40 mbar 2.48 m/s 180.55 Deg 0 µg/m3
2022-08-18 08:00 0 µg/m3 2.97 µg/m3 N/A N/A N/A 30.83 °C 63.12 % 1,010.47 mbar 2.58 m/s 190.43 Deg 0 µg/m3
2022-08-18 07:00 0 µg/m3 2.47 µg/m3 N/A N/A N/A 29.21 °C 81.11 % 1,010.19 mbar 2.59 m/s 200.93 Deg 0 µg/m3
2022-08-18 06:00 0 µg/m3 2.4 µg/m3 N/A N/A N/A 28.69 °C 87.63 % 1,009.59 mbar 2.33 m/s 194.99 Deg 0 µg/m3
2022-08-18 05:00 0 µg/m3 1.59 µg/m3 N/A N/A N/A 28.75 °C 87.34 % 1,009.35 mbar 1.56 m/s 200.19 Deg 0 µg/m3
2022-08-18 04:00 0 µg/m3 2.02 µg/m3 N/A N/A N/A 28.93 °C 86.19 % 1,009.65 mbar 1.23 m/s 188.99 Deg 0 µg/m3
2022-08-18 03:00 0 µg/m3 2.52 µg/m3 N/A N/A N/A 29.15 °C 87.05 % 1,009.64 mbar 0.69 m/s 193.85 Deg 0 µg/m3
2022-08-18 02:00 0 µg/m3 1.36 µg/m3 N/A N/A N/A 29.41 °C 87.43 % 1,009.76 mbar 0.55 m/s 251.81 Deg 0 µg/m3
2022-08-18 01:00 0 µg/m3 1.74 µg/m3 N/A N/A N/A 29.46 °C 86.85 % 1,010.02 mbar 0.53 m/s 312.55 Deg 0 µg/m3
2022-08-18 00:00 0 µg/m3 2.75 µg/m3 N/A N/A N/A 29.92 °C 84.12 % 1,010.24 mbar 0.57 m/s 302.22 Deg 0 µg/m3
2022-08-17 23:00 0 µg/m3 3.08 µg/m3 N/A N/A N/A 30.11 °C 84.2 % 1,010.43 mbar 1.21 m/s 193.73 Deg 0 µg/m3
2022-08-17 22:00 0 µg/m3 1.63 µg/m3 N/A N/A N/A 30.36 °C 83.01 % 1,010.52 mbar 0.87 m/s 192.25 Deg 0 µg/m3
2022-08-17 21:00 0 µg/m3 1.67 µg/m3 N/A N/A N/A 31.05 °C 79.5 % 1,010.53 mbar 0.65 m/s 214.01 Deg 0 µg/m3
2022-08-17 20:00 0 µg/m3 2.14 µg/m3 N/A N/A N/A 31.92 °C 73.92 % 1,010.22 mbar 0.69 m/s 193.05 Deg 0 µg/m3
2022-08-17 19:00 0 µg/m3 1.97 µg/m3 N/A N/A N/A 33.07 °C 63.49 % 1,009.99 mbar 0.79 m/s 195.03 Deg 0 µg/m3
2022-08-17 18:00 0 µg/m3 2.39 µg/m3 N/A N/A N/A 34.72 °C 54.24 % 1,010.18 mbar 0.75 m/s 205.8 Deg 0 µg/m3
2022-08-17 17:00 0 µg/m3 2.3 µg/m3 N/A N/A N/A 33.74 °C 62.76 % 1,010.36 mbar 0.83 m/s 198.17 Deg 0 µg/m3
2022-08-17 16:00 0 µg/m3 2.24 µg/m3 N/A N/A N/A 34.39 °C 53.8 % 1,010.44 mbar 0.96 m/s 224.79 Deg 0 µg/m3
2022-08-17 15:00 0 µg/m3 2.33 µg/m3 N/A N/A N/A 34.63 °C 48 % 1,010.49 mbar 0.72 m/s 217.93 Deg 0 µg/m3
2022-08-17 14:00 0 µg/m3 2.34 µg/m3 N/A N/A N/A 33.38 °C 57.33 % 1,010.66 mbar 0.69 m/s 334.79 Deg 0 µg/m3
2022-08-17 13:00 0 µg/m3 2.71 µg/m3 N/A N/A N/A 32.06 °C 69.37 % 1,010.76 mbar 0.81 m/s 150.81 Deg 0 µg/m3
2022-08-17 12:00 0 µg/m3 1.65 µg/m3 N/A N/A N/A 31.25 °C 73.56 % 1,011.06 mbar 0.94 m/s 267.23 Deg 0 µg/m3
2022-08-17 11:00 0 µg/m3 1.79 µg/m3 N/A N/A N/A 30.1 °C 82.19 % 1,011.23 mbar 1.12 m/s 163.74 Deg 0 µg/m3
2022-08-17 10:00 0 µg/m3 1.53 µg/m3 N/A N/A N/A 30.96 °C 77.65 % 1,011.10 mbar 1.09 m/s 210.92 Deg 0 µg/m3
2022-08-17 09:00 18.16 µg/m3 2.39 µg/m3 N/A N/A N/A 30.32 °C 68.91 % 1,011.11 mbar 0.61 m/s 272.29 Deg 18.23 µg/m3
2022-08-17 08:00 207.4 µg/m3 2.55 µg/m3 N/A N/A N/A 29 °C 83.47 % 1,011.11 mbar 0.33 m/s 185.41 Deg 10.39 µg/m3
2022-08-17 07:00 29.66 µg/m3 2.6 µg/m3 N/A N/A N/A 28.33 °C 86.22 % 1,010.75 mbar 0.03 m/s 180.13 Deg 6.91 µg/m3
2022-08-17 06:00 37.84 µg/m3 2.32 µg/m3 N/A N/A N/A 27.46 °C 89.76 % 1,010.51 mbar 0.12 m/s 285.63 Deg 11.03 µg/m3
2022-08-17 05:00 28.69 µg/m3 2.47 µg/m3 N/A N/A N/A 28 °C 94.5 % 1,010.36 mbar 1.31 m/s 197.51 Deg 6.95 µg/m3
2022-08-17 04:00 30.59 µg/m3 2.18 µg/m3 N/A N/A N/A 28.13 °C 94.48 % 1,010.28 mbar 1.92 m/s 210.31 Deg 2.62 µg/m3
2022-08-17 03:00 30.42 µg/m3 2.19 µg/m3 N/A N/A N/A 28.21 °C 94.03 % 1,010.37 mbar 2.18 m/s 214.31 Deg 3.63 µg/m3
2022-08-17 02:00 46.98 µg/m3 2.52 µg/m3 N/A N/A N/A 28.38 °C 92.85 % 1,010.55 mbar 3.31 m/s 198.15 Deg 24.48 µg/m3
2022-08-17 01:00 20.12 µg/m3 2.66 µg/m3 N/A N/A N/A 28.3 °C 93.63 % 1,010.99 mbar 2.96 m/s 206.43 Deg 5.01 µg/m3
2022-08-17 00:00 13.77 µg/m3 2.54 µg/m3 N/A N/A N/A 28.7 °C 91.86 % 1,011.32 mbar 2.46 m/s 213.27 Deg 0.73 µg/m3
2022-08-16 23:00 23.76 µg/m3 2.19 µg/m3 N/A N/A N/A 28.88 °C 90.35 % 1,011.45 mbar 1.75 m/s 201.29 Deg 5.82 µg/m3
2022-08-16 22:00 16.81 µg/m3 2.12 µg/m3 N/A N/A N/A 28.98 °C 89.73 % 1,011.45 mbar 1.86 m/s 211.72 Deg 1.43 µg/m3
2022-08-16 21:00 18.05 µg/m3 2.13 µg/m3 N/A N/A N/A 29.26 °C 88.38 % 1,011.35 mbar 2.69 m/s 212.9 Deg 2.94 µg/m3
2022-08-16 20:00 17.46 µg/m3 2.51 µg/m3 N/A N/A N/A 30.06 °C 83.24 % 1,010.94 mbar 3.43 m/s 213.58 Deg 3.45 µg/m3
2022-08-16 19:00 11.05 µg/m3 2.79 µg/m3 N/A N/A N/A 31.64 °C 67.99 % 1,010.47 mbar 0.54 m/s 282.43 Deg 1.35 µg/m3
2022-08-16 18:00 10.53 µg/m3 2.43 µg/m3 N/A N/A N/A 32.26 °C 65.93 % 1,010.41 mbar 0.6 m/s 255.98 Deg 1.57 µg/m3
2022-08-16 17:00 10.76 µg/m3 2.74 µg/m3 N/A N/A N/A 33.4 °C 54.71 % 1,010.57 mbar 2.29 m/s 251.08 Deg 1.82 µg/m3
2022-08-16 16:00 13.06 µg/m3 2.48 µg/m3 N/A N/A N/A 32.7 °C 59.93 % 1,010.80 mbar 2.91 m/s 257.53 Deg 3.6 µg/m3
2022-08-16 15:00 11.48 µg/m3 2.4 µg/m3 N/A N/A N/A 32.74 °C 62.5 % 1,010.93 mbar 2.63 m/s 212.59 Deg 3.01 µg/m3
2022-08-16 14:00 13.37 µg/m3 2.51 µg/m3 N/A N/A N/A 33.21 °C 50.53 % 1,010.78 mbar 4.45 m/s 213.38 Deg 3.85 µg/m3
2022-08-16 13:00 14.48 µg/m3 2.53 µg/m3 N/A N/A N/A 33.2 °C 47.77 % 1,010.65 mbar 4.42 m/s 208.09 Deg 4.35 µg/m3
2022-08-16 12:00 16.7 µg/m3 2.55 µg/m3 N/A N/A N/A 32.87 °C 51.13 % 1,010.57 mbar 3.13 m/s 209.98 Deg 4.43 µg/m3
2022-08-16 11:00 14.47 µg/m3 2.81 µg/m3 N/A N/A N/A 31.68 °C 57.05 % 1,010.45 mbar 4.74 m/s 207.43 Deg 4.39 µg/m3
2022-08-16 10:00 16.15 µg/m3 2.67 µg/m3 N/A N/A N/A 30.94 °C 62.86 % 1,010.50 mbar 4.13 m/s 209.88 Deg 3.42 µg/m3
2022-08-16 09:00 28.76 µg/m3 2.41 µg/m3 N/A N/A N/A 30.43 °C 67.98 % 1,010.01 mbar 2.67 m/s 200.03 Deg 10 µg/m3
2022-08-16 08:00 35.55 µg/m3 2.75 µg/m3 N/A N/A N/A 29.65 °C 74.44 % 1,009.58 mbar 2.27 m/s 189.04 Deg 9.53 µg/m3
2022-08-16 07:00 39.03 µg/m3 3.31 µg/m3 N/A N/A N/A 28.57 °C 83.39 % 1,009.34 mbar 3.18 m/s 185.33 Deg 8.97 µg/m3
2022-08-16 06:00 29.73 µg/m3 3.46 µg/m3 N/A N/A N/A 28.1 °C 85.43 % 1,009.43 mbar 2.85 m/s 189.83 Deg 4.84 µg/m3
2022-08-16 05:00 24.67 µg/m3 3.14 µg/m3 N/A N/A N/A 28.04 °C 88.46 % 1,009.51 mbar 2.35 m/s 185.53 Deg 4.49 µg/m3
2022-08-16 04:00 29.91 µg/m3 2.97 µg/m3 N/A N/A N/A 28.11 °C 87.47 % 1,009.63 mbar 1.88 m/s 195.25 Deg 7.66 µg/m3
2022-08-16 03:00 37.38 µg/m3 2.83 µg/m3 N/A N/A N/A 28.26 °C 86.06 % 1,009.24 mbar 1.33 m/s 204.85 Deg 9.83 µg/m3
2022-08-16 02:00 8.27 µg/m3 2.67 µg/m3 N/A N/A N/A 28.25 °C 86.85 % 1,010.13 mbar 0.92 m/s 222.89 Deg 2.05 µg/m3
2022-08-16 01:00 5.66 µg/m3 2.4 µg/m3 N/A N/A N/A 28.48 °C 87.3 % 1,011.10 mbar 1.96 m/s 273.45 Deg 0.4 µg/m3
2022-08-16 00:00 11.35 µg/m3 2.48 µg/m3 N/A N/A N/A 28.66 °C 85.42 % 1,011.57 mbar 2.83 m/s 254.78 Deg 0.8 µg/m3
2022-08-15 23:00 24.19 µg/m3 2.86 µg/m3 N/A N/A N/A 28.85 °C 83.89 % 1,010.54 mbar 2.12 m/s 192.88 Deg 4.23 µg/m3
2022-08-15 22:00 36.37 µg/m3 2.63 µg/m3 N/A N/A N/A 29.06 °C 82.17 % 1,009.89 mbar 2.26 m/s 178.17 Deg 9.21 µg/m3
2022-08-15 21:00 32.63 µg/m3 2.67 µg/m3 N/A N/A N/A 29.24 °C 80.65 % 1,009.28 mbar 2.06 m/s 182.04 Deg 5.68 µg/m3
2022-08-15 20:00 30.39 µg/m3 3.04 µg/m3 N/A N/A N/A 29.52 °C 78.49 % 1,008.38 mbar 1.7 m/s 182.4 Deg 2.89 µg/m3
2022-08-15 19:00 23.99 µg/m3 3.57 µg/m3 N/A N/A N/A 30.02 °C 76.23 % 1,007.82 mbar 1.53 m/s 186.73 Deg 3.08 µg/m3
2022-08-15 18:00 22.53 µg/m3 3.25 µg/m3 N/A N/A N/A 30.81 °C 71.87 % 1,007.86 mbar 2.01 m/s 181.09 Deg 4.15 µg/m3
2022-08-15 17:00 19.56 µg/m3 2.85 µg/m3 N/A N/A N/A 31.7 °C 66.78 % 1,008.34 mbar 1.94 m/s 188.78 Deg 3.96 µg/m3
2022-08-15 16:00 19.23 µg/m3 2.43 µg/m3 N/A N/A N/A 31.99 °C 64.47 % 1,008.54 mbar 1.9 m/s 187.73 Deg 5.53 µg/m3
2022-08-15 15:00 18.14 µg/m3 2.93 µg/m3 N/A N/A N/A 32 °C 65.26 % 1,008.65 mbar 1.91 m/s 189.36 Deg 4.06 µg/m3
2022-08-15 14:00 19.24 µg/m3 3.1 µg/m3 N/A N/A N/A 31.57 °C 66.06 % 1,008.87 mbar 2.38 m/s 190.9 Deg 5.22 µg/m3
2022-08-15 13:00 13.42 µg/m3 2.4 µg/m3 N/A N/A N/A 31.9 °C 65.35 % 1,008.89 mbar 1.39 m/s 205.5 Deg 3.23 µg/m3
2022-08-15 12:00 12.94 µg/m3 2.19 µg/m3 N/A N/A N/A 31.74 °C 66.27 % 1,009.06 mbar 0.92 m/s 211.59 Deg 2.45 µg/m3
2022-08-15 11:00 17.64 µg/m3 2.35 µg/m3 N/A N/A N/A 30.74 °C 70.77 % 1,009.12 mbar 1.16 m/s 190.47 Deg 5.79 µg/m3
2022-08-15 10:00 23.51 µg/m3 2.64 µg/m3 N/A N/A N/A 29.98 °C 73.51 % 1,009.10 mbar 1.19 m/s 199.67 Deg 4.29 µg/m3
2022-08-15 09:00 46.66 µg/m3 3.06 µg/m3 N/A N/A N/A 29.46 °C 70.9 % 1,008.82 mbar 0.89 m/s 234.74 Deg 27.25 µg/m3
2022-08-15 08:00 20.15 µg/m3 2.84 µg/m3 N/A N/A N/A 28.71 °C 70.08 % 1,008.50 mbar 0.6 m/s 241.38 Deg 3.12 µg/m3
2022-08-15 07:00 14.39 µg/m3 3.57 µg/m3 N/A N/A N/A 27.84 °C 73.09 % 1,008.33 mbar 0.5 m/s 163.32 Deg 1.03 µg/m3
2022-08-15 06:00 17.47 µg/m3 4 µg/m3 N/A N/A N/A 27.43 °C 75.79 % 1,007.63 mbar 0.61 m/s 251.49 Deg 1.52 µg/m3
2022-08-15 05:00 14.57 µg/m3 4.23 µg/m3 N/A N/A N/A 27.25 °C 79.04 % 1,007.55 mbar 0.74 m/s 295.98 Deg 0.65 µg/m3
2022-08-15 04:00 8.33 µg/m3 4.28 µg/m3 N/A N/A N/A 27.18 °C 85.48 % 1,007.61 mbar 1 m/s 188.28 Deg 0.75 µg/m3
2022-08-15 03:00 15.21 µg/m3 4.35 µg/m3 N/A N/A N/A 27.39 °C 85.99 % 1,007.53 mbar 0.4 m/s 313.83 Deg 2.83 µg/m3
2022-08-15 02:00 8.04 µg/m3 4.23 µg/m3 N/A N/A N/A 27.41 °C 85.22 % 1,007.75 mbar 0.79 m/s 259.98 Deg 0.85 µg/m3
2022-08-15 01:00 5.41 µg/m3 4.39 µg/m3 N/A N/A N/A 27.65 °C 83.92 % 1,007.82 mbar 0.41 m/s 286.77 Deg 0.38 µg/m3
2022-08-15 00:00 6.77 µg/m3 5.46 µg/m3 N/A N/A N/A 27.97 °C 82.1 % 1,008.06 mbar 0.49 m/s 257.86 Deg 0.63 µg/m3
2022-08-14 23:00 21.62 µg/m3 4.58 µg/m3 N/A N/A N/A 28.36 °C 77.75 % 1,007.83 mbar 0.92 m/s 333.83 Deg 4.29 µg/m3
2022-08-14 22:00 26.8 µg/m3 3.54 µg/m3 N/A N/A N/A 29.19 °C 69.86 % 1,007.89 mbar 1.28 m/s 285.12 Deg 15.07 µg/m3
2022-08-14 21:00 44.11 µg/m3 3.47 µg/m3 N/A N/A N/A 29.29 °C 65.2 % 1,007.60 mbar 1.76 m/s 257.33 Deg 17 µg/m3
2022-08-14 20:00 60.28 µg/m3 4.01 µg/m3 N/A N/A N/A 29.39 °C 63.08 % 1,006.99 mbar 3.29 m/s 234.13 Deg 68.95 µg/m3
2022-08-14 19:00 64.93 µg/m3 1.69 µg/m3 N/A N/A N/A 30.5 °C 52.36 % 1,006.35 mbar 4.39 m/s 228.38 Deg 77.24 µg/m3
2022-08-14 18:00 35.22 µg/m3 3.24 µg/m3 N/A N/A N/A 31.69 °C 48.42 % 1,006.10 mbar 2.93 m/s 252.13 Deg 15.96 µg/m3
2022-08-14 17:00 18.07 µg/m3 2.63 µg/m3 N/A N/A N/A 32.6 °C 45.97 % 1,006.17 mbar 0.96 m/s 288.86 Deg 2.98 µg/m3
2022-08-14 16:00 10.67 µg/m3 3.01 µg/m3 N/A N/A N/A 32.42 °C 44.38 % 1,006.52 mbar 0.92 m/s 262 Deg 3.27 µg/m3
2022-08-14 15:00 5.52 µg/m3 3.24 µg/m3 N/A N/A N/A 30.72 °C 67.35 % 1,006.81 mbar 1.35 m/s 311.98 Deg 1.6 µg/m3
2022-08-14 14:00 4.69 µg/m3 4.24 µg/m3 N/A N/A N/A 30.62 °C 75.97 % 1,007.25 mbar 0.91 m/s 263.24 Deg 1.59 µg/m3
2022-08-14 13:00 7.6 µg/m3 4.44 µg/m3 N/A N/A N/A 29.5 °C 81.76 % 1,007.48 mbar 1.74 m/s 327.87 Deg 1.54 µg/m3
2022-08-14 12:00 7.23 µg/m3 4.99 µg/m3 N/A N/A N/A 29.85 °C 78.96 % 1,007.79 mbar 1.87 m/s 335.78 Deg 1.21 µg/m3
2022-08-14 11:00 16.89 µg/m3 5.35 µg/m3 N/A N/A N/A 30.36 °C 73.68 % 1,008.00 mbar 1.92 m/s 324.6 Deg 5.49 µg/m3
2022-08-14 10:00 26.22 µg/m3 5.17 µg/m3 N/A N/A N/A 30.78 °C 54.51 % 1,008.11 mbar 3.66 m/s 247.74 Deg 15.84 µg/m3
2022-08-14 09:00 21.97 µg/m3 5.63 µg/m3 N/A N/A N/A 30.23 °C 57.06 % 1,007.90 mbar 3.84 m/s 259.03 Deg 9.22 µg/m3
2022-08-14 08:00 26.47 µg/m3 6.04 µg/m3 N/A N/A N/A 28.56 °C 73.04 % 1,007.49 mbar 3.02 m/s 222.68 Deg 7.92 µg/m3
2022-08-14 07:00 44.38 µg/m3 5.93 µg/m3 N/A N/A N/A 27.21 °C 87.42 % 1,007.49 mbar 3.71 m/s 205.93 Deg 8.03 µg/m3
2022-08-14 06:00 44.39 µg/m3 5.33 µg/m3 N/A N/A N/A 26.84 °C 86.53 % 1,007.76 mbar 1.87 m/s 192.93 Deg 4.97 µg/m3
2022-08-14 05:00 40.1 µg/m3 5.72 µg/m3 N/A N/A N/A 26.95 °C 85.97 % 1,008.06 mbar 2.2 m/s 193.55 Deg 1.44 µg/m3
2022-08-14 04:00 23.76 µg/m3 6.79 µg/m3 N/A N/A N/A 27.24 °C 83.81 % 1,008.35 mbar 3.58 m/s 206.55 Deg 1.29 µg/m3
2022-08-14 03:00 33.96 µg/m3 7.12 µg/m3 N/A N/A N/A 27.27 °C 82.71 % 1,008.73 mbar 3.51 m/s 196.77 Deg 1 µg/m3
2022-08-14 02:00 25.92 µg/m3 5.67 µg/m3 N/A N/A N/A 27.35 °C 81.46 % 1,009.11 mbar 3.93 m/s 208.96 Deg 0.71 µg/m3
2022-08-14 01:00 26.85 µg/m3 4.47 µg/m3 N/A N/A N/A 27.49 °C 81.22 % 1,009.61 mbar 3.83 m/s 208.07 Deg 0.63 µg/m3
2022-08-14 00:00 26.16 µg/m3 5.46 µg/m3 N/A N/A N/A 27.59 °C 80.19 % 1,009.89 mbar 4.47 m/s 211.21 Deg 0.94 µg/m3
2022-08-13 23:00 33.87 µg/m3 5.66 µg/m3 N/A N/A N/A 27.75 °C 77.15 % 1,009.85 mbar 4.5 m/s 209.09 Deg 2.2 µg/m3
2022-08-13 22:00 13.92 µg/m3 5.72 µg/m3 N/A N/A N/A 27.98 °C 74.31 % 1,009.88 mbar 4.88 m/s 215.44 Deg 0.56 µg/m3
2022-08-13 21:00 19.52 µg/m3 6.01 µg/m3 N/A N/A N/A 28.02 °C 73.36 % 1,009.80 mbar 5.53 m/s 211.5 Deg 0.77 µg/m3
2022-08-13 20:00 16.72 µg/m3 5.61 µg/m3 N/A N/A N/A 28.3 °C 72.71 % 1,009.70 mbar 5.97 m/s 202.48 Deg 0.54 µg/m3
2022-08-13 19:00 15.94 µg/m3 4.56 µg/m3 N/A N/A N/A 28.72 °C 66.75 % 1,009.29 mbar 6.87 m/s 217.7 Deg 15.25 µg/m3
2022-08-13 18:00 10.11 µg/m3 3.91 µg/m3 N/A N/A N/A 29.33 °C 60.66 % 1,009.27 mbar 6.75 m/s 223.78 Deg 1.01 µg/m3
2022-08-13 17:00 17.88 µg/m3 4.52 µg/m3 N/A N/A N/A 29.89 °C 52.35 % 1,009.56 mbar 6.05 m/s 240.63 Deg 9.92 µg/m3
2022-08-13 16:00 31.9 µg/m3 4.31 µg/m3 N/A N/A N/A 29.52 °C 60.43 % 1,010.10 mbar 5.81 m/s 240.87 Deg 16.71 µg/m3
2022-08-13 15:00 28.08 µg/m3 2.67 µg/m3 N/A N/A N/A 29.65 °C 58.99 % 1,010.68 mbar 5.5 m/s 243.94 Deg 14.98 µg/m3
2022-08-13 14:00 27.02 µg/m3 2.06 µg/m3 N/A N/A N/A 29.49 °C 58.18 % 1,010.92 mbar 5.11 m/s 241.22 Deg 11.56 µg/m3
2022-08-13 13:00 15.43 µg/m3 2.35 µg/m3 N/A N/A N/A 29.16 °C 63.09 % 1,011.10 mbar 2.92 m/s 274.11 Deg 3.13 µg/m3
2022-08-13 12:00 14.6 µg/m3 2.71 µg/m3 N/A N/A N/A 28.88 °C 68.53 % 1,011.42 mbar 2.01 m/s 331.97 Deg 3.53 µg/m3
2022-08-13 11:00 12.36 µg/m3 2.24 µg/m3 N/A N/A N/A 28.61 °C 70.04 % 1,011.51 mbar 2 m/s 325.93 Deg 1.88 µg/m3
2022-08-13 10:00 15.23 µg/m3 2.13 µg/m3 N/A N/A N/A 28.56 °C 68.69 % 1,011.32 mbar 1.7 m/s 331.6 Deg 3.08 µg/m3
2022-08-13 09:00 20.7 µg/m3 2.92 µg/m3 N/A N/A N/A 27.68 °C 65.12 % 1,011.08 mbar 2.99 m/s 271.32 Deg 4.9 µg/m3
2022-08-13 08:00 49.27 µg/m3 2.09 µg/m3 N/A N/A N/A 26.7 °C 72.72 % 1,010.86 mbar 2.61 m/s 229.84 Deg 19.98 µg/m3
2022-08-13 07:00 70.88 µg/m3 2.56 µg/m3 N/A N/A N/A 25.71 °C 79.55 % 1,010.39 mbar 1.62 m/s 208.66 Deg 49.82 µg/m3
2022-08-13 06:00 23.45 µg/m3 2.63 µg/m3 N/A N/A N/A 26.32 °C 73.53 % 1,010.19 mbar 1.2 m/s 306.05 Deg 2.85 µg/m3
2022-08-13 05:00 8.44 µg/m3 3.42 µg/m3 N/A N/A N/A 26.43 °C 73 % 1,010.01 mbar 1.11 m/s 345.03 Deg 0.68 µg/m3
2022-08-13 04:00 10.23 µg/m3 3.17 µg/m3 N/A N/A N/A 26.57 °C 72.37 % 1,010.09 mbar 1.33 m/s 341.63 Deg 0.83 µg/m3
2022-08-13 03:00 15.02 µg/m3 3.06 µg/m3 N/A N/A N/A 26.55 °C 73.46 % 1,009.93 mbar 0.87 m/s 332.36 Deg 1.61 µg/m3
2022-08-13 02:00 6.85 µg/m3 3.29 µg/m3 N/A N/A N/A 26.73 °C 78.51 % 1,010.06 mbar 0.92 m/s 331.97 Deg 0.6 µg/m3
2022-08-13 01:00 9.11 µg/m3 3.26 µg/m3 N/A N/A N/A 27.82 °C 74.02 % 1,010.40 mbar 0.86 m/s 321.38 Deg 0.38 µg/m3
2022-08-13 00:00 30.6 µg/m3 2.66 µg/m3 N/A N/A N/A 27.49 °C 72.17 % 1,010.40 mbar 2.21 m/s 231.63 Deg 2.18 µg/m3
2022-08-12 23:00 18.28 µg/m3 2.5 µg/m3 N/A N/A N/A 27.38 °C 70.81 % 1,010.42 mbar 1.96 m/s 235.51 Deg 0.88 µg/m3
2022-08-12 22:00 13.65 µg/m3 2.62 µg/m3 N/A N/A N/A 27.35 °C 72.29 % 1,010.35 mbar 2.21 m/s 259.36 Deg 1.11 µg/m3
2022-08-12 21:00 19.43 µg/m3 3 µg/m3 N/A N/A N/A 27.49 °C 72.28 % 1,010.06 mbar 2.94 m/s 253.37 Deg 1.15 µg/m3
2022-08-12 20:00 21.44 µg/m3 3.15 µg/m3 N/A N/A N/A 27.61 °C 69.41 % 1,009.65 mbar 3.68 m/s 249.28 Deg 4.71 µg/m3
2022-08-12 19:00 19.51 µg/m3 2.52 µg/m3 N/A N/A N/A 28.08 °C 63.71 % 1,009.65 mbar 2.45 m/s 302.34 Deg 2.35 µg/m3
2022-08-12 18:00 15.02 µg/m3 2.64 µg/m3 N/A N/A N/A 28.98 °C 57.24 % 1,009.58 mbar 3.02 m/s 284.8 Deg 2.35 µg/m3
2022-08-12 17:00 18.27 µg/m3 2.85 µg/m3 N/A N/A N/A 29.34 °C 56.41 % 1,009.49 mbar 2.17 m/s 297.39 Deg 2.28 µg/m3
2022-08-12 16:00 10.21 µg/m3 2.66 µg/m3 N/A N/A N/A 29 °C 59.24 % 1,009.58 mbar 2.34 m/s 338.88 Deg 1.09 µg/m3
2022-08-12 15:00 10.31 µg/m3 2.69 µg/m3 N/A N/A N/A 28.93 °C 63.54 % 1,009.99 mbar 1.55 m/s 341.13 Deg 1.33 µg/m3
2022-08-12 14:00 11.35 µg/m3 2.07 µg/m3 N/A N/A N/A 29.08 °C 60.25 % 1,010.04 mbar 1.26 m/s 316.83 Deg 1.66 µg/m3
2022-08-12 13:00 11.61 µg/m3 2.24 µg/m3 N/A N/A N/A 28.66 °C 59.52 % 1,009.86 mbar 1.4 m/s 330.16 Deg 3.23 µg/m3
2022-08-12 12:00 13.33 µg/m3 2.74 µg/m3 N/A N/A N/A 27.89 °C 70.83 % 1,010.09 mbar 0.96 m/s 208.14 Deg 2.49 µg/m3
2022-08-12 11:00 14.25 µg/m3 2.11 µg/m3 N/A N/A N/A 27.77 °C 75.02 % 1,010.58 mbar 1.06 m/s 272.78 Deg 2.07 µg/m3
2022-08-12 10:00 19.46 µg/m3 3.55 µg/m3 N/A N/A N/A 26.91 °C 74.09 % 1,010.55 mbar 1.09 m/s 243.44 Deg 2.72 µg/m3
2022-08-12 09:00 14.06 µg/m3 2.77 µg/m3 N/A N/A N/A 26.38 °C 73.43 % 1,010.35 mbar 0.71 m/s 151.88 Deg 1.66 µg/m3
2022-08-12 08:00 23.92 µg/m3 2.76 µg/m3 N/A N/A N/A 23.95 °C 80.63 % 1,010.16 mbar 2.05 m/s 279.2 Deg 7.7 µg/m3
2022-08-12 07:00 50.92 µg/m3 3.42 µg/m3 N/A N/A N/A 25.31 °C 86.02 % 1,009.76 mbar 1.51 m/s 210.22 Deg 124.1 µg/m3
2022-08-12 06:00 43.84 µg/m3 2.86 µg/m3 N/A N/A N/A 25.03 °C 87.21 % 1,009.33 mbar 1.2 m/s 205.74 Deg 86.3 µg/m3
2022-08-12 05:00 36.23 µg/m3 2.76 µg/m3 N/A N/A N/A 24.96 °C 88.1 % 1,009.26 mbar 1.46 m/s 208.8 Deg 41.31 µg/m3
2022-08-12 04:00 34.23 µg/m3 2.89 µg/m3 N/A N/A N/A 25.29 °C 86.53 % 1,009.56 mbar 1.21 m/s 201.34 Deg 55.65 µg/m3
2022-08-12 03:00 41.72 µg/m3 2.76 µg/m3 N/A N/A N/A 26.05 °C 82.79 % 1,009.74 mbar 0.71 m/s 190.43 Deg 28 µg/m3
2022-08-12 02:00 11.33 µg/m3 2.28 µg/m3 N/A N/A N/A 27.03 °C 74.01 % 1,010.06 mbar 0.09 m/s 278.85 Deg 0.92 µg/m3
2022-08-12 01:00 19.63 µg/m3 2.23 µg/m3 N/A N/A N/A 27.11 °C 74.42 % 1,010.35 mbar 0.31 m/s 246.07 Deg 0.95 µg/m3
2022-08-12 00:00 16.73 µg/m3 2.39 µg/m3 N/A N/A N/A 27.36 °C 74.18 % 1,010.67 mbar 0.54 m/s 244.59 Deg 0.84 µg/m3
2022-08-11 23:00 18.3 µg/m3 2.33 µg/m3 N/A N/A N/A 27.6 °C 73.03 % 1,010.94 mbar 0.43 m/s 289.62 Deg 1.77 µg/m3
2022-08-11 22:00 20.27 µg/m3 2.71 µg/m3 N/A N/A N/A 27.52 °C 71.61 % 1,010.81 mbar 0.39 m/s 245.41 Deg 1.33 µg/m3
2022-08-11 21:00 18 µg/m3 2.59 µg/m3 N/A N/A N/A 27.7 °C 73.9 % 1,010.64 mbar 0.39 m/s 259.1 Deg 0.82 µg/m3
2022-08-11 20:00 20.75 µg/m3 2.4 µg/m3 N/A N/A N/A 27.68 °C 74.6 % 1,010.28 mbar 0.37 m/s 305.23 Deg 2.09 µg/m3
2022-08-11 19:00 41.54 µg/m3 2.77 µg/m3 N/A N/A N/A 27.88 °C 73.79 % 1,010.01 mbar 1.2 m/s 232.78 Deg 14.68 µg/m3
2022-08-11 18:00 10.2 µg/m3 2.93 µg/m3 N/A N/A N/A 28.45 °C 71.67 % 1,009.87 mbar 0.67 m/s 263.14 Deg 3.41 µg/m3
2022-08-11 17:00 13.49 µg/m3 2.21 µg/m3 N/A N/A N/A 28.89 °C 70.52 % 1,010.08 mbar 0.73 m/s 285.3 Deg 3.19 µg/m3
2022-08-11 16:00 14.38 µg/m3 2.36 µg/m3 N/A N/A N/A 29.91 °C 66.61 % 1,010.24 mbar 0.9 m/s 268.86 Deg 3.63 µg/m3
2022-08-11 15:00 13.37 µg/m3 2.49 µg/m3 N/A N/A N/A 29.33 °C 66.91 % 1,010.55 mbar 0.96 m/s 220.24 Deg 3.44 µg/m3
2022-08-11 14:00 37.61 µg/m3 2.55 µg/m3 N/A N/A N/A 26.14 °C 82.26 % 1,011.01 mbar 2.47 m/s 217.19 Deg 17.22 µg/m3
2022-08-11 13:00 16.82 µg/m3 2.08 µg/m3 N/A N/A N/A 27.94 °C 74.64 % 1,011.42 mbar 1.16 m/s 245.55 Deg 3.38 µg/m3
2022-08-11 12:00 14.07 µg/m3 2.13 µg/m3 N/A N/A N/A 28.06 °C 69.34 % 1,011.52 mbar 0.8 m/s 258.38 Deg 2.23 µg/m3
2022-08-11 11:00 11.45 µg/m3 2.28 µg/m3 N/A N/A N/A 27.71 °C 71.92 % 1,011.63 mbar 0.93 m/s 235.91 Deg 1.4 µg/m3
2022-08-11 10:00 13.31 µg/m3 2.14 µg/m3 N/A N/A N/A 26.26 °C 80.77 % 1,011.73 mbar 0.71 m/s 125.73 Deg 2.41 µg/m3
2022-08-11 09:00 21.61 µg/m3 2.37 µg/m3 N/A N/A N/A 27.56 °C 69.96 % 1,011.59 mbar 1.18 m/s 146.36 Deg 4.29 µg/m3
2022-08-11 08:00 15.43 µg/m3 2.28 µg/m3 N/A N/A N/A 27.26 °C 71.05 % 1,011.15 mbar 0.75 m/s 261.25 Deg 19.1 µg/m3
2022-08-11 07:00 52.97 µg/m3 3.07 µg/m3 N/A N/A N/A 26.83 °C 77.01 % 1,010.78 mbar 0.49 m/s 168.43 Deg 43.24 µg/m3
2022-08-11 06:00 55.71 µg/m3 3.43 µg/m3 N/A N/A N/A 26.86 °C 76.79 % 1,010.51 mbar 1.21 m/s 223.03 Deg 51.84 µg/m3
2022-08-11 05:00 38.44 µg/m3 2.94 µg/m3 N/A N/A N/A 27.02 °C 73.71 % 1,010.27 mbar 1.08 m/s 255.92 Deg 8.89 µg/m3
2022-08-11 04:00 24.24 µg/m3 2.66 µg/m3 N/A N/A N/A 27.42 °C 71.77 % 1,010.20 mbar 0.98 m/s 201.77 Deg 1.78 µg/m3
2022-08-11 03:00 20.97 µg/m3 2.57 µg/m3 N/A N/A N/A 27.62 °C 71.39 % 1,010.54 mbar 0.9 m/s 201.01 Deg 4.02 µg/m3
2022-08-11 02:00 16.48 µg/m3 2.37 µg/m3 N/A N/A N/A 27.73 °C 71.08 % 1,010.81 mbar 1.15 m/s 198.21 Deg 1.53 µg/m3
2022-08-11 01:00 19.55 µg/m3 2.31 µg/m3 N/A N/A N/A 27.91 °C 71.27 % 1,011.14 mbar 1.23 m/s 195.81 Deg 1.36 µg/m3
2022-08-11 00:00 23.78 µg/m3 2.46 µg/m3 N/A N/A N/A 28.3 °C 69.84 % 1,011.48 mbar 0.65 m/s 197.98 Deg 1.97 µg/m3
2022-08-10 23:00 29.02 µg/m3 2.5 µg/m3 N/A N/A N/A 28.4 °C 67.11 % 1,011.59 mbar 1.16 m/s 188.84 Deg 4.18 µg/m3
2022-08-10 22:00 16.21 µg/m3 2.47 µg/m3 N/A N/A N/A 28.49 °C 66.98 % 1,011.51 mbar 0.56 m/s 241.82 Deg 1.26 µg/m3
2022-08-10 21:00 22.5 µg/m3 2.35 µg/m3 N/A N/A N/A 28.6 °C 66.88 % 1,011.34 mbar 0.89 m/s 263.01 Deg 3.59 µg/m3
2022-08-10 20:00 19.49 µg/m3 3.68 µg/m3 N/A N/A N/A 29.12 °C 58.49 % 1,011.20 mbar 1.43 m/s 269.98 Deg 13.03 µg/m3
2022-08-10 19:00 15.91 µg/m3 2.55 µg/m3 N/A N/A N/A 29.75 °C 59.73 % 1,011.10 mbar 1.44 m/s 295.48 Deg 2.67 µg/m3
2022-08-10 18:00 10.64 µg/m3 2.19 µg/m3 N/A N/A N/A 29.99 °C 64.44 % 1,010.89 mbar 1.44 m/s 317.87 Deg 1.97 µg/m3
2022-08-10 17:00 11.44 µg/m3 1.97 µg/m3 N/A N/A N/A 29.98 °C 60.01 % 1,011.01 mbar 2.7 m/s 209.92 Deg 4.3 µg/m3
2022-08-10 16:00 16.2 µg/m3 2.39 µg/m3 N/A N/A N/A 30.63 °C 56.23 % 1,011.06 mbar 2.9 m/s 188.93 Deg 7.29 µg/m3
2022-08-10 15:00 11.93 µg/m3 1.05 µg/m3 N/A N/A N/A 31.11 °C 59.26 % 1,011.13 mbar 1.39 m/s 192.7 Deg 3.92 µg/m3
2022-08-10 14:00 9.9 µg/m3 2.1 µg/m3 N/A N/A N/A 29.63 °C 69.21 % 1,011.82 mbar 0.72 m/s 282.78 Deg 2.14 µg/m3
2022-08-10 13:00 9.3 µg/m3 2.56 µg/m3 N/A N/A N/A 30.68 °C 65.11 % 1,012.07 mbar 0.94 m/s 295.4 Deg 2.34 µg/m3
2022-08-10 12:00 9.86 µg/m3 2.42 µg/m3 N/A N/A N/A 30.22 °C 66.61 % 1,012.23 mbar 0.93 m/s 158.68 Deg 2.77 µg/m3
2022-08-10 11:00 13.84 µg/m3 2.19 µg/m3 N/A N/A N/A 30.36 °C 64.36 % 1,012.30 mbar 0.95 m/s 225.38 Deg 4.77 µg/m3
2022-08-10 10:00 18.74 µg/m3 2.03 µg/m3 N/A N/A N/A 29.68 °C 67.86 % 1,012.21 mbar 0.79 m/s 217.38 Deg 11.42 µg/m3
2022-08-10 09:00 20.87 µg/m3 2.2 µg/m3 N/A N/A N/A 28.95 °C 71.58 % 1,012.08 mbar 0.83 m/s 212.39 Deg 3.45 µg/m3
2022-08-10 08:00 19.27 µg/m3 2.01 µg/m3 N/A N/A N/A 27.86 °C 75.77 % 1,011.87 mbar 1.58 m/s 227.9 Deg 2.45 µg/m3
2022-08-10 07:00 25.57 µg/m3 2.22 µg/m3 N/A N/A N/A 27.1 °C 81.86 % 1,011.63 mbar 2.53 m/s 219.03 Deg 3.98 µg/m3
2022-08-10 06:00 45.48 µg/m3 2.64 µg/m3 N/A N/A N/A 27.16 °C 83.94 % 1,011.41 mbar 2.01 m/s 210.38 Deg 6.4 µg/m3
2022-08-10 05:00 44.98 µg/m3 2.38 µg/m3 N/A N/A N/A 27.23 °C 84.75 % 1,011.00 mbar 1.31 m/s 216.85 Deg 7.25 µg/m3
2022-08-10 04:00 51.54 µg/m3 2.32 µg/m3 N/A N/A N/A 27.21 °C 83.63 % 1,011.06 mbar 1.63 m/s 215.03 Deg 16.38 µg/m3
2022-08-10 03:00 42.18 µg/m3 1.89 µg/m3 N/A N/A N/A 27.58 °C 81.45 % 1,011.19 mbar 0.92 m/s 213.09 Deg 5.03 µg/m3
2022-08-10 02:00 50.62 µg/m3 2.05 µg/m3 N/A N/A N/A 27.46 °C 82.07 % 1,011.37 mbar 1.85 m/s 216.94 Deg 10.87 µg/m3
2022-08-10 01:00 34.96 µg/m3 1.97 µg/m3 N/A N/A N/A 27.97 °C 80.14 % 1,011.65 mbar 1.37 m/s 203.77 Deg 2.23 µg/m3
2022-08-10 00:00 10.24 µg/m3 2.05 µg/m3 N/A N/A N/A 28.28 °C 79.34 % 1,012.04 mbar 0.64 m/s 273.84 Deg 0.79 µg/m3
2022-08-09 23:00 14.95 µg/m3 2.34 µg/m3 N/A N/A N/A 28.51 °C 78.45 % 1,012.12 mbar 0.24 m/s 315.29 Deg 2.82 µg/m3
2022-08-09 22:00 8.96 µg/m3 2.37 µg/m3 N/A N/A N/A 28.65 °C 76.47 % 1,011.99 mbar 0.45 m/s 315.55 Deg 1.41 µg/m3
2022-08-09 21:00 13.01 µg/m3 2.44 µg/m3 N/A N/A N/A 28.62 °C 77.01 % 1,011.92 mbar 1.3 m/s 276.28 Deg 1.27 µg/m3
2022-08-09 20:00 24.06 µg/m3 2.35 µg/m3 N/A N/A N/A 29.13 °C 74.32 % 1,011.56 mbar 1.2 m/s 301.58 Deg 6.78 µg/m3
2022-08-09 19:00 16 µg/m3 2.43 µg/m3 N/A N/A N/A 29.4 °C 71.12 % 1,011.28 mbar 1.96 m/s 323.45 Deg 5.55 µg/m3
2022-08-09 18:00 14.69 µg/m3 3.4 µg/m3 N/A N/A N/A 30.07 °C 69.54 % 1,011.30 mbar 1.32 m/s 326.38 Deg 3.22 µg/m3
2022-08-09 17:00 10.85 µg/m3 2.69 µg/m3 N/A N/A N/A 31.04 °C 68.94 % 1,011.07 mbar 0.85 m/s 330.52 Deg 2.71 µg/m3
2022-08-09 16:00 10.5 µg/m3 2.6 µg/m3 N/A N/A N/A 31.09 °C 63.7 % 1,011.04 mbar 1.07 m/s 290.7 Deg 2.71 µg/m3
2022-08-09 15:00 30.43 µg/m3 3.22 µg/m3 N/A N/A N/A 31.28 °C 59.09 % 1,011.27 mbar 2.57 m/s 232.34 Deg 23.65 µg/m3
2022-08-09 14:00 10.81 µg/m3 2.77 µg/m3 N/A N/A N/A 31.49 °C 61.63 % 1,011.52 mbar 1.03 m/s 257.66 Deg 3.26 µg/m3
2022-08-09 13:00 8.38 µg/m3 2 µg/m3 N/A N/A N/A 30.3 °C 67.84 % 1,012.09 mbar 1.36 m/s 183.06 Deg 1.86 µg/m3
2022-08-09 12:00 9.53 µg/m3 2.12 µg/m3 N/A N/A N/A 29.74 °C 68.94 % 1,012.46 mbar 1.15 m/s 174.89 Deg 2.09 µg/m3
2022-08-09 11:00 10.26 µg/m3 2.64 µg/m3 N/A N/A N/A 29.53 °C 70.69 % 1,012.42 mbar 1.14 m/s 199.61 Deg 1.94 µg/m3
2022-08-09 10:00 14.25 µg/m3 3.03 µg/m3 N/A N/A N/A 29.52 °C 71.23 % 1,012.27 mbar 0.97 m/s 184.94 Deg 2.63 µg/m3
2022-08-09 09:00 17.8 µg/m3 3.46 µg/m3 N/A N/A N/A 29.25 °C 72.55 % 1,012.08 mbar 0.78 m/s 169.99 Deg 13.83 µg/m3
2022-08-09 08:00 19.22 µg/m3 3.4 µg/m3 N/A N/A N/A 28.74 °C 73.97 % 1,011.85 mbar 0.29 m/s 327.41 Deg 5.23 µg/m3
2022-08-09 07:00 62.34 µg/m3 3.74 µg/m3 N/A N/A N/A 27.32 °C 79.76 % 1,011.49 mbar 0.8 m/s 220.01 Deg 53.22 µg/m3
2022-08-09 06:00 59.99 µg/m3 4.39 µg/m3 N/A N/A N/A 27.11 °C 79.92 % 1,011.03 mbar 1.03 m/s 208.43 Deg 50.89 µg/m3
2022-08-09 05:00 55.04 µg/m3 3.73 µg/m3 N/A N/A N/A 27.05 °C 79.48 % 1,010.79 mbar 1.58 m/s 206.82 Deg 5.28 µg/m3
2022-08-09 04:00 59.88 µg/m3 2.78 µg/m3 N/A N/A N/A 27.52 °C 78.92 % 1,010.72 mbar 0.84 m/s 203.5 Deg 10.19 µg/m3
2022-08-09 03:00 62.39 µg/m3 3.02 µg/m3 N/A N/A N/A 27.58 °C 79.11 % 1,010.72 mbar 1.24 m/s 206.03 Deg 10.47 µg/m3
2022-08-09 02:00 13.57 µg/m3 2.59 µg/m3 N/A N/A N/A 27.84 °C 79.19 % 1,010.77 mbar 0.89 m/s 239.34 Deg 1.56 µg/m3
2022-08-09 01:00 5.52 µg/m3 2.67 µg/m3 N/A N/A N/A 28.26 °C 78.93 % 1,011.04 mbar 0.17 m/s 344.81 Deg 0.48 µg/m3
2022-08-09 00:00 5.35 µg/m3 3.16 µg/m3 N/A N/A N/A 28.47 °C 76.19 % 1,011.57 mbar 0.43 m/s 245.22 Deg 0.49 µg/m3
2022-08-08 23:00 14.12 µg/m3 2.31 µg/m3 N/A N/A N/A 28.44 °C 77.66 % 1,011.68 mbar 0.56 m/s 247.57 Deg 1.93 µg/m3
2022-08-08 22:00 5.79 µg/m3 1.97 µg/m3 N/A N/A N/A 28.79 °C 77.26 % 1,011.54 mbar 0.49 m/s 131.04 Deg 0.53 µg/m3
2022-08-08 21:00 8.18 µg/m3 1.8 µg/m3 N/A N/A N/A 28.96 °C 76.31 % 1,011.54 mbar 0.69 m/s 205.97 Deg 1.24 µg/m3
2022-08-08 20:00 7.17 µg/m3 2.3 µg/m3 N/A N/A N/A 29.28 °C 74.77 % 1,010.79 mbar 0.71 m/s 240.11 Deg 0.72 µg/m3
2022-08-08 19:00 9.25 µg/m3 1.72 µg/m3 N/A N/A N/A 29.93 °C 71.74 % 1,010.27 mbar 0.64 m/s 286.85 Deg 1.07 µg/m3
2022-08-08 18:00 9.48 µg/m3 0.65 µg/m3 N/A N/A N/A 30.75 °C 68.78 % 1,009.93 mbar 0.73 m/s 169.24 Deg 1.44 µg/m3
2022-08-08 17:00 6.1 µg/m3 2.45 µg/m3 N/A N/A N/A 30.87 °C 68.13 % 1,009.98 mbar 0.96 m/s 328.77 Deg 1.47 µg/m3
2022-08-08 16:00 6.33 µg/m3 2.6 µg/m3 N/A N/A N/A 30.88 °C 69.85 % 1,009.79 mbar 1.11 m/s 203.13 Deg 2.26 µg/m3
2022-08-08 15:00 5.27 µg/m3 2.87 µg/m3 N/A N/A N/A 31.05 °C 70.36 % 1,009.87 mbar 0.88 m/s 274.43 Deg 1.67 µg/m3
2022-08-08 14:00 6.99 µg/m3 2.3 µg/m3 N/A N/A N/A 30.83 °C 72.24 % 1,010.38 mbar 1.08 m/s 200.6 Deg 4.5 µg/m3
2022-08-08 13:00 6.9 µg/m3 2.51 µg/m3 N/A N/A N/A 30.29 °C 75.24 % 1,010.27 mbar 1.34 m/s 155.38 Deg 1.28 µg/m3
2022-08-08 12:00 7.84 µg/m3 2.14 µg/m3 N/A N/A N/A 30.2 °C 75.59 % 1,010.47 mbar 1.11 m/s 158.33 Deg 1.55 µg/m3
2022-08-08 11:00 13.87 µg/m3 3.66 µg/m3 N/A N/A N/A 30.05 °C 73.01 % 1,010.50 mbar 0.95 m/s 175.15 Deg 2.68 µg/m3
2022-08-08 10:00 13.11 µg/m3 4.05 µg/m3 N/A N/A N/A 29.99 °C 71.56 % 1,010.42 mbar 0.74 m/s 216.88 Deg 3.8 µg/m3
2022-08-08 09:00 22.73 µg/m3 2.27 µg/m3 N/A N/A N/A 29.66 °C 65.87 % 1,010.07 mbar 0.69 m/s 246.3 Deg 7.93 µg/m3
2022-08-08 08:00 37.86 µg/m3 2.59 µg/m3 N/A N/A N/A 28.17 °C 79.05 % 1,009.67 mbar 0.7 m/s 271.2 Deg 10.64 µg/m3
2022-08-08 07:00 54.82 µg/m3 4.29 µg/m3 N/A N/A N/A 27.1 °C 81.69 % 1,009.20 mbar 0.36 m/s 210.18 Deg 68.65 µg/m3
2022-08-08 06:00 47.86 µg/m3 4.14 µg/m3 N/A N/A N/A 26.17 °C 82.84 % 1,008.79 mbar 1.56 m/s 214.37 Deg 61.49 µg/m3
2022-08-08 05:00 40.37 µg/m3 2.71 µg/m3 N/A N/A N/A 26.6 °C 84.09 % 1,008.41 mbar 0.68 m/s 231.15 Deg 13.61 µg/m3
2022-08-08 04:00 44.64 µg/m3 2.06 µg/m3 N/A N/A N/A 26.93 °C 83.93 % 1,008.11 mbar 1.29 m/s 216.85 Deg 12.71 µg/m3
2022-08-08 03:00 53.71 µg/m3 2.11 µg/m3 N/A N/A N/A 26.85 °C 86.05 % 1,008.21 mbar 0.81 m/s 146.17 Deg 32.73 µg/m3
2022-08-08 02:00 15.82 µg/m3 2.27 µg/m3 N/A N/A N/A 27.34 °C 86.48 % 1,008.32 mbar 1.91 m/s 201.88 Deg 0.96 µg/m3
2022-08-08 01:00 5.12 µg/m3 2.28 µg/m3 N/A N/A N/A 27.6 °C 84.29 % 1,008.58 mbar 0.8 m/s 273.71 Deg 0.41 µg/m3
2022-08-08 00:00 8.46 µg/m3 1.86 µg/m3 N/A N/A N/A 27.63 °C 85.52 % 1,008.91 mbar 2.37 m/s 244.43 Deg 0.82 µg/m3
2022-08-07 23:00 19.49 µg/m3 2.05 µg/m3 N/A N/A N/A 28.01 °C 82.88 % 1,008.98 mbar 2.1 m/s 226.54 Deg 3.04 µg/m3
2022-08-07 22:00 11.89 µg/m3 2.38 µg/m3 N/A N/A N/A 28.44 °C 75.42 % 1,008.96 mbar 1.54 m/s 263.88 Deg 1.17 µg/m3
2022-08-07 21:00 12.61 µg/m3 2.32 µg/m3 N/A N/A N/A 28.13 °C 78.15 % 1,008.84 mbar 1.17 m/s 289.33 Deg 1.54 µg/m3
2022-08-07 20:00 10.46 µg/m3 2.33 µg/m3 N/A N/A N/A 28.58 °C 78.18 % 1,008.42 mbar 1.41 m/s 289.94 Deg 1.04 µg/m3
2022-08-07 19:00 13.29 µg/m3 2.37 µg/m3 N/A N/A N/A 29.04 °C 72.19 % 1,007.97 mbar 1.93 m/s 330.23 Deg 2.25 µg/m3
2022-08-07 18:00 15 µg/m3 2.13 µg/m3 N/A N/A N/A 30.01 °C 64.93 % 1,007.57 mbar 1.83 m/s 335.78 Deg 3.34 µg/m3
2022-08-07 17:00 8.6 µg/m3 2.24 µg/m3 N/A N/A N/A 31.25 °C 61.41 % 1,007.78 mbar 1.11 m/s 330.06 Deg 1.69 µg/m3
2022-08-07 16:00 5.36 µg/m3 1.87 µg/m3 N/A N/A N/A 31.5 °C 60.56 % 1,007.90 mbar 0.98 m/s 197.38 Deg 1.02 µg/m3
2022-08-07 15:00 4.87 µg/m3 2.37 µg/m3 N/A N/A N/A 31.53 °C 57.63 % 1,008.15 mbar 0.89 m/s 283.12 Deg 1.26 µg/m3
2022-08-07 14:00 4.37 µg/m3 1.57 µg/m3 N/A N/A N/A 31.17 °C 60.57 % 1,008.55 mbar 0.79 m/s 210.75 Deg 1.95 µg/m3
2022-08-07 13:00 4.22 µg/m3 1.76 µg/m3 N/A N/A N/A 30.41 °C 68.89 % 1,009.01 mbar 0.76 m/s 178.52 Deg 1.69 µg/m3
2022-08-07 12:00 5.15 µg/m3 1.34 µg/m3 N/A N/A N/A 30.18 °C 69.6 % 1,009.34 mbar 0.75 m/s 185.07 Deg 1.45 µg/m3
2022-08-07 11:00 6.57 µg/m3 1.42 µg/m3 N/A N/A N/A 29.83 °C 70.07 % 1,009.61 mbar 0.84 m/s 256.82 Deg 1.68 µg/m3
2022-08-07 10:00 9.03 µg/m3 1.92 µg/m3 N/A N/A N/A 29.4 °C 71.85 % 1,009.68 mbar 0.97 m/s 260.99 Deg 2.38 µg/m3
2022-08-07 09:00 9.91 µg/m3 1.45 µg/m3 N/A N/A N/A 28.9 °C 77.29 % 1,009.27 mbar 0.73 m/s 137.33 Deg 2.07 µg/m3
2022-08-07 08:00 11.95 µg/m3 1.32 µg/m3 N/A N/A N/A 28.24 °C 82.7 % 1,008.91 mbar 0.87 m/s 162.87 Deg 1.25 µg/m3
2022-08-07 07:00 10.44 µg/m3 2.03 µg/m3 N/A N/A N/A 27.75 °C 83.96 % 1,008.48 mbar 1.01 m/s 285.94 Deg 0.76 µg/m3
2022-08-07 06:00 29.27 µg/m3 1.8 µg/m3 N/A N/A N/A 26.9 °C 80.07 % 1,008.15 mbar 1.11 m/s 257.13 Deg 1.61 µg/m3
2022-08-07 05:00 21.37 µg/m3 2.35 µg/m3 N/A N/A N/A 26.98 °C 82.08 % 1,007.94 mbar 2.12 m/s 231 Deg 1.51 µg/m3
2022-08-07 04:00 9.03 µg/m3 1.96 µg/m3 N/A N/A N/A 27.74 °C 75.91 % 1,007.97 mbar 1.05 m/s 275.22 Deg 0.58 µg/m3
2022-08-07 03:00 10.37 µg/m3 2.31 µg/m3 N/A N/A N/A 27.71 °C 73.77 % 1,008.15 mbar 1.65 m/s 279.8 Deg 0.7 µg/m3
2022-08-07 02:00 6.87 µg/m3 2.47 µg/m3 N/A N/A N/A 27.79 °C 77.46 % 1,008.53 mbar 3.24 m/s 239.83 Deg 0.4 µg/m3
2022-08-07 01:00 10.34 µg/m3 2.42 µg/m3 N/A N/A N/A 27.74 °C 78.66 % 1,009.15 mbar 3.84 m/s 230.67 Deg 0.83 µg/m3
2022-08-07 00:00 6.91 µg/m3 2.25 µg/m3 N/A N/A N/A 27.83 °C 79.14 % 1,009.73 mbar 4.12 m/s 226.64 Deg 2.3 µg/m3
2022-08-06 23:00 8.53 µg/m3 2.5 µg/m3 N/A N/A N/A 28.17 °C 76.91 % 1,009.99 mbar 4.22 m/s 238.56 Deg 1.59 µg/m3
2022-08-06 22:00 7.13 µg/m3 2.51 µg/m3 N/A N/A N/A 28.36 °C 75.82 % 1,010.14 mbar 3.6 m/s 249.2 Deg 0.4 µg/m3
2022-08-06 21:00 6.35 µg/m3 2.51 µg/m3 N/A N/A N/A 28.63 °C 75 % 1,010.13 mbar 3.49 m/s 260.83 Deg 0.69 µg/m3
2022-08-06 20:00 6.34 µg/m3 2.59 µg/m3 N/A N/A N/A 29.02 °C 71.52 % 1,009.82 mbar 4.58 m/s 268.75 Deg 0.92 µg/m3
2022-08-06 19:00 7.02 µg/m3 2.79 µg/m3 N/A N/A N/A 29.78 °C 64.4 % 1,009.49 mbar 5.15 m/s 263.91 Deg 0.69 µg/m3
2022-08-06 18:00 8.21 µg/m3 2.34 µg/m3 N/A N/A N/A 30.87 °C 54.77 % 1,009.28 mbar 5.05 m/s 250.63 Deg 0.8 µg/m3
2022-08-06 17:00 20.12 µg/m3 2.46 µg/m3 N/A N/A N/A 31.68 °C 44.15 % 1,009.39 mbar 5.18 m/s 254.18 Deg 7.4 µg/m3
2022-08-06 16:00 21.02 µg/m3 2.87 µg/m3 N/A N/A N/A 32.26 °C 38.32 % 1,009.62 mbar 5.1 m/s 263.15 Deg 8.2 µg/m3
2022-08-06 15:00 15.05 µg/m3 2.53 µg/m3 N/A N/A N/A 32.69 °C 37.65 % 1,010.06 mbar 4.36 m/s 257.49 Deg 4.26 µg/m3
2022-08-06 14:00 9.74 µg/m3 2.65 µg/m3 N/A N/A N/A 32.97 °C 40.87 % 1,010.40 mbar 2.05 m/s 323.68 Deg 1.93 µg/m3
2022-08-06 13:00 9.16 µg/m3 2.51 µg/m3 N/A N/A N/A 32.22 °C 51.48 % 1,010.63 mbar 1.66 m/s 308.45 Deg 1.57 µg/m3
2022-08-06 12:00 9.89 µg/m3 2.57 µg/m3 N/A N/A N/A 30.93 °C 62.51 % 1,010.81 mbar 1.81 m/s 338.23 Deg 2.4 µg/m3
2022-08-06 11:00 10.33 µg/m3 2.3 µg/m3 N/A N/A N/A 30.71 °C 64.98 % 1,010.97 mbar 1.73 m/s 336.64 Deg 2.65 µg/m3
2022-08-06 10:00 18.29 µg/m3 2.38 µg/m3 N/A N/A N/A 30.62 °C 57.46 % 1,010.90 mbar 2.6 m/s 286.31 Deg 5.55 µg/m3
2022-08-06 09:00 24.96 µg/m3 2.03 µg/m3 N/A N/A N/A 29.48 °C 58.96 % 1,010.78 mbar 3.91 m/s 259.33 Deg 6.89 µg/m3
2022-08-06 08:00 27.68 µg/m3 2.48 µg/m3 N/A N/A N/A 28.42 °C 64.04 % 1,010.73 mbar 3.19 m/s 266.42 Deg 6.87 µg/m3
2022-08-06 07:00 25.44 µg/m3 2.22 µg/m3 N/A N/A N/A 27.45 °C 76.5 % 1,010.80 mbar 2.52 m/s 256.84 Deg 4.68 µg/m3
2022-08-06 06:00 17.87 µg/m3 2.55 µg/m3 N/A N/A N/A 27.28 °C 81.45 % 1,010.73 mbar 2.7 m/s 257.21 Deg 1.4 µg/m3
2022-08-06 05:00 26.24 µg/m3 2.65 µg/m3 N/A N/A N/A 27.43 °C 80.06 % 1,010.45 mbar 2.88 m/s 266.42 Deg 4.06 µg/m3
2022-08-06 04:00 18.26 µg/m3 2.4 µg/m3 N/A N/A N/A 27.43 °C 80.5 % 1,010.51 mbar 3.02 m/s 243.38 Deg 2.54 µg/m3
2022-08-06 03:00 29.34 µg/m3 2.7 µg/m3 N/A N/A N/A 27.5 °C 81.7 % 1,010.68 mbar 2.06 m/s 266.01 Deg 3.51 µg/m3
2022-08-06 02:00 9.32 µg/m3 2.6 µg/m3 N/A N/A N/A 27.7 °C 80.62 % 1,010.80 mbar 2.29 m/s 248.58 Deg 0.59 µg/m3
2022-08-06 01:00 11.07 µg/m3 2.39 µg/m3 N/A N/A N/A 27.82 °C 78.55 % 1,011.09 mbar 2.53 m/s 231.16 Deg 0.59 µg/m3
2022-08-06 00:00 15.94 µg/m3 2.71 µg/m3 N/A N/A N/A 28.25 °C 73.45 % 1,011.49 mbar 2.76 m/s 254.81 Deg 1.7 µg/m3
2022-08-05 23:00 38.39 µg/m3 2.28 µg/m3 N/A N/A N/A 28.53 °C 66.93 % 1,011.49 mbar 2.33 m/s 269.87 Deg 5.99 µg/m3
2022-08-05 22:00 40 µg/m3 2.6 µg/m3 N/A N/A N/A 29.05 °C 57.15 % 1,011.55 mbar 2.33 m/s 262.68 Deg 9.42 µg/m3
2022-08-05 21:00 26.83 µg/m3 2.82 µg/m3 N/A N/A N/A 29.26 °C 61.19 % 1,011.60 mbar 1.38 m/s 303.31 Deg 3.4 µg/m3
2022-08-05 20:00 42.42 µg/m3 2.97 µg/m3 N/A N/A N/A 29.82 °C 56.78 % 1,011.17 mbar 2.04 m/s 270.68 Deg 7.42 µg/m3
2022-08-05 19:00 35.86 µg/m3 2.68 µg/m3 N/A N/A N/A 30.85 °C 46.95 % 1,010.89 mbar 2.77 m/s 271.42 Deg 4.51 µg/m3
2022-08-05 18:00 30.15 µg/m3 2.73 µg/m3 N/A N/A N/A 31.66 °C 41.27 % 1,010.90 mbar 3.39 m/s 266.59 Deg 7.64 µg/m3
2022-08-05 17:00 23.67 µg/m3 2.39 µg/m3 N/A N/A N/A 31.96 °C 48.49 % 1,011.17 mbar 1.77 m/s 303.89 Deg 5.02 µg/m3
2022-08-05 16:00 12.11 µg/m3 2.85 µg/m3 N/A N/A N/A 31.61 °C 48.81 % 1,011.41 mbar 2.23 m/s 345.43 Deg 2.58 µg/m3
2022-08-05 15:00 6.91 µg/m3 3.46 µg/m3 N/A N/A N/A 31.5 °C 44.18 % 1,011.75 mbar 2.31 m/s 345.71 Deg 1.61 µg/m3
2022-08-05 14:00 5.19 µg/m3 3.44 µg/m3 N/A N/A N/A 30.91 °C 51.5 % 1,012.17 mbar 2.09 m/s 340.97 Deg 1.44 µg/m3
2022-08-05 13:00 7.96 µg/m3 2.18 µg/m3 N/A N/A N/A 30.43 °C 59.73 % 1,012.43 mbar 1.83 m/s 325.87 Deg 1.75 µg/m3
2022-08-05 12:00 9.29 µg/m3 2.3 µg/m3 N/A N/A N/A 29.92 °C 67.04 % 1,012.68 mbar 1.44 m/s 332.28 Deg 2.24 µg/m3
2022-08-05 11:00 7.73 µg/m3 2.39 µg/m3 N/A N/A N/A 29.28 °C 70.51 % 1,012.84 mbar 1.61 m/s 321.86 Deg 2.02 µg/m3
2022-08-05 10:00 9.02 µg/m3 2.55 µg/m3 N/A N/A N/A 29.39 °C 70.87 % 1,012.78 mbar 1.65 m/s 343.52 Deg 2.05 µg/m3
2022-08-05 09:00 13.53 µg/m3 2.41 µg/m3 N/A N/A N/A 29.44 °C 64.25 % 1,012.64 mbar 1.44 m/s 304.18 Deg 2.89 µg/m3
2022-08-05 08:00 23.45 µg/m3 2.97 µg/m3 N/A N/A N/A 28.44 °C 63.81 % 1,012.27 mbar 1.65 m/s 281.58 Deg 4.43 µg/m3
2022-08-05 07:00 42.09 µg/m3 3.1 µg/m3 N/A N/A N/A 27.26 °C 77.99 % 1,012.04 mbar 1.9 m/s 269.63 Deg 9.49 µg/m3
2022-08-05 06:00 66.33 µg/m3 3.4 µg/m3 N/A N/A N/A 26.57 °C 83.66 % 1,011.94 mbar 1.55 m/s 211.48 Deg 11.6 µg/m3
2022-08-05 05:00 55.88 µg/m3 3.19 µg/m3 N/A N/A N/A 26.97 °C 82.73 % 1,011.80 mbar 1.84 m/s 229.36 Deg 5.55 µg/m3
2022-08-05 04:00 9.54 µg/m3 3.18 µg/m3 N/A N/A N/A 27.42 °C 80.99 % 1,011.82 mbar 1.06 m/s 290.26 Deg 0.8 µg/m3
2022-08-05 03:00 9.46 µg/m3 3.36 µg/m3 N/A N/A N/A 27.7 °C 80.64 % 1,012.06 mbar 1.07 m/s 298.81 Deg 1.16 µg/m3
2022-08-05 02:00 8.8 µg/m3 3.96 µg/m3 N/A N/A N/A 27.68 °C 77.84 % 1,012.38 mbar 0.94 m/s 278.93 Deg 0.81 µg/m3
2022-08-05 01:00 3.84 µg/m3 5.31 µg/m3 N/A N/A N/A 28.34 °C 76.74 % 1,012.63 mbar 0.94 m/s 299.89 Deg 0.23 µg/m3
2022-08-05 00:00 6.04 µg/m3 5.38 µg/m3 N/A N/A N/A 28.52 °C 72.39 % 1,012.76 mbar 0.5 m/s 299.06 Deg 0.3 µg/m3
2022-08-04 23:00 9.44 µg/m3 4.13 µg/m3 N/A N/A N/A 28.48 °C 70.94 % 1,012.80 mbar 0.26 m/s 262.14 Deg 0.19 µg/m3
2022-08-04 22:00 10.02 µg/m3 4.12 µg/m3 N/A N/A N/A 28.83 °C 70.97 % 1,012.86 mbar 0.37 m/s 290.33 Deg 0.98 µg/m3
2022-08-04 21:00 13.75 µg/m3 3.34 µg/m3 N/A N/A N/A 29.05 °C 69.26 % 1,012.77 mbar 0.74 m/s 166.94 Deg 0.9 µg/m3
2022-08-04 20:00 16.42 µg/m3 4.44 µg/m3 N/A N/A N/A 29.42 °C 68.55 % 1,012.23 mbar 0.59 m/s 196.78 Deg 0.41 µg/m3
2022-08-04 19:00 11.44 µg/m3 3.79 µg/m3 N/A N/A N/A 30.42 °C 64.62 % 1,012.15 mbar 0.62 m/s 234.38 Deg 1.02 µg/m3
2022-08-04 18:00 13.2 µg/m3 3 µg/m3 N/A N/A N/A 30.94 °C 61.72 % 1,012.12 mbar 1.03 m/s 218.56 Deg 1.3 µg/m3
2022-08-04 17:00 9.64 µg/m3 2.79 µg/m3 N/A N/A N/A 32.06 °C 50.04 % 1,011.98 mbar 0.88 m/s 234.63 Deg 0.93 µg/m3
2022-08-04 16:00 11.23 µg/m3 2.44 µg/m3 N/A N/A N/A 31.93 °C 53.7 % 1,011.94 mbar 0.75 m/s 208.25 Deg 1 µg/m3
2022-08-04 15:00 12.16 µg/m3 2.65 µg/m3 N/A N/A N/A 31.22 °C 62.95 % 1,012.23 mbar 0.75 m/s 257.04 Deg 1.88 µg/m3
2022-08-04 14:00 12.61 µg/m3 2.79 µg/m3 N/A N/A N/A 30.77 °C 67.42 % 1,012.55 mbar 0.64 m/s 292.33 Deg 1.72 µg/m3
2022-08-04 13:00 8.45 µg/m3 2.76 µg/m3 N/A N/A N/A 30.4 °C 67.16 % 1,012.92 mbar 0.75 m/s 312.71 Deg 0.85 µg/m3
2022-08-04 12:00 7.36 µg/m3 2.8 µg/m3 N/A N/A N/A 30.07 °C 65.01 % 1,013.13 mbar 0.88 m/s 226.29 Deg 0.99 µg/m3
2022-08-04 11:00 12.63 µg/m3 3.17 µg/m3 N/A N/A N/A 29.69 °C 68.6 % 1,013.16 mbar 0.66 m/s 258.9 Deg 1.84 µg/m3
2022-08-04 10:00 13.52 µg/m3 3.38 µg/m3 N/A N/A N/A 29.2 °C 73.52 % 1,012.92 mbar 0.73 m/s 237.3 Deg 1.88 µg/m3
2022-08-04 09:00 20.31 µg/m3 3.29 µg/m3 N/A N/A N/A 28.66 °C 73.73 % 1,012.59 mbar 1 m/s 166.45 Deg 4.67 µg/m3
2022-08-04 08:00 16.78 µg/m3 2.49 µg/m3 N/A N/A N/A 28.31 °C 72.36 % 1,012.21 mbar 0.99 m/s 153.48 Deg 3.45 µg/m3
2022-08-04 07:00 46.82 µg/m3 3.51 µg/m3 N/A N/A N/A 27.26 °C 73.31 % 1,011.82 mbar 0.65 m/s 195.65 Deg 33.59 µg/m3
2022-08-04 06:00 58.26 µg/m3 3.45 µg/m3 N/A N/A N/A 26.13 °C 77.25 % 1,011.54 mbar 0.69 m/s 208.88 Deg 57.39 µg/m3
2022-08-04 05:00 51.57 µg/m3 2.76 µg/m3 N/A N/A N/A 25.87 °C 76.32 % 1,011.30 mbar 1.25 m/s 202.02 Deg 23.47 µg/m3
2022-08-04 04:00 47.98 µg/m3 2.49 µg/m3 N/A N/A N/A 26.14 °C 75.02 % 1,011.37 mbar 1.46 m/s 211.68 Deg 18.24 µg/m3
2022-08-04 03:00 46.45 µg/m3 2.6 µg/m3 N/A N/A N/A 26.82 °C 73.74 % 1,011.46 mbar 1.24 m/s 217.74 Deg 6.94 µg/m3
2022-08-04 02:00 5.41 µg/m3 2.09 µg/m3 N/A N/A N/A 27.55 °C 70.39 % 1,011.77 mbar 0.23 m/s 81.14 Deg 0.88 µg/m3
2022-08-04 01:00 2.71 µg/m3 2.43 µg/m3 N/A N/A N/A 27.57 °C 69.29 % 1,011.89 mbar 0.19 m/s 17.24 Deg 0.22 µg/m3
2022-08-04 00:00 6.19 µg/m3 2.53 µg/m3 N/A N/A N/A 27.74 °C 69.04 % 1,012.01 mbar 0.25 m/s 189.97 Deg 0.4 µg/m3
2022-08-03 23:00 7.35 µg/m3 2.05 µg/m3 N/A N/A N/A 27.82 °C 70.06 % 1,011.84 mbar 0.43 m/s 160.54 Deg 0.62 µg/m3
2022-08-03 22:00 10.43 µg/m3 2.39 µg/m3 N/A N/A N/A 28.19 °C 68.79 % 1,011.79 mbar 0.51 m/s 95.67 Deg 0.38 µg/m3
2022-08-03 21:00 8.22 µg/m3 1.73 µg/m3 N/A N/A N/A 28.37 °C 66.77 % 1,011.67 mbar 0.51 m/s 168.55 Deg 0.68 µg/m3
2022-08-03 20:00 6.24 µg/m3 2.23 µg/m3 N/A N/A N/A 28.61 °C 66.72 % 1,011.26 mbar 0.62 m/s 232.11 Deg 0.45 µg/m3
2022-08-03 19:00 7.77 µg/m3 -0.82 µg/m3 N/A N/A N/A 29.6 °C 64.35 % 1,011.07 mbar 0.74 m/s 209.63 Deg 0.71 µg/m3
2022-08-03 18:00 9.78 µg/m3 1.97 µg/m3 N/A N/A N/A 30.65 °C 59.36 % 1,010.87 mbar 0.86 m/s 233.33 Deg 2.59 µg/m3
2022-08-03 17:00 11.01 µg/m3 2.26 µg/m3 N/A N/A N/A 30.92 °C 57.09 % 1,010.87 mbar 0.91 m/s 235.08 Deg 2.29 µg/m3
2022-08-03 16:00 6.07 µg/m3 2.04 µg/m3 N/A N/A N/A 31.01 °C 56.69 % 1,010.88 mbar 0.86 m/s 284.96 Deg 1.64 µg/m3
2022-08-03 15:00 7.01 µg/m3 1.58 µg/m3 N/A N/A N/A 30.93 °C 59.96 % 1,011.08 mbar 0.86 m/s 183.44 Deg 1.97 µg/m3
2022-08-03 14:00 8.18 µg/m3 2.02 µg/m3 N/A N/A N/A 30.67 °C 61.55 % 1,011.49 mbar 0.87 m/s 257.37 Deg 1.99 µg/m3
2022-08-03 13:00 8.6 µg/m3 2.11 µg/m3 N/A N/A N/A 30.23 °C 63.17 % 1,011.78 mbar 1 m/s 271.52 Deg 1.7 µg/m3
2022-08-03 12:00 5.36 µg/m3 2.08 µg/m3 N/A N/A N/A 29.94 °C 60.65 % 1,012.04 mbar 1.3 m/s 265.52 Deg 0.92 µg/m3
2022-08-03 11:00 7.34 µg/m3 1.94 µg/m3 N/A N/A N/A 29.64 °C 63.86 % 1,012.23 mbar 1.34 m/s 227.38 Deg 1.49 µg/m3
2022-08-03 10:00 10.43 µg/m3 1.98 µg/m3 N/A N/A N/A 29.42 °C 63.6 % 1,012.09 mbar 1.75 m/s 171.58 Deg 1.51 µg/m3
2022-08-03 09:00 15.29 µg/m3 2.24 µg/m3 N/A N/A N/A 28.97 °C 62.83 % 1,011.80 mbar 1.45 m/s 148.46 Deg 2.97 µg/m3
2022-08-03 08:00 18.68 µg/m3 2 µg/m3 N/A N/A N/A 28.54 °C 73.66 % 1,011.50 mbar 0.86 m/s 192.49 Deg 4.1 µg/m3
2022-08-03 07:00 21.94 µg/m3 1.91 µg/m3 N/A N/A N/A 27.85 °C 76.52 % 1,011.00 mbar 0.87 m/s 342.07 Deg 3.11 µg/m3
2022-08-03 06:00 27.1 µg/m3 1.95 µg/m3 N/A N/A N/A 27.33 °C 76.43 % 1,010.51 mbar 1.02 m/s 346.54 Deg 14.53 µg/m3
2022-08-03 05:00 20.96 µg/m3 2.36 µg/m3 N/A N/A N/A 26.87 °C 79.93 % 1,010.17 mbar 0.78 m/s 326.03 Deg 10.92 µg/m3
2022-08-03 04:00 34.71 µg/m3 2.72 µg/m3 N/A N/A N/A 26.3 °C 82.18 % 1,010.10 mbar 1.03 m/s 212.93 Deg 9.04 µg/m3
2022-08-03 03:00 30.06 µg/m3 2.36 µg/m3 N/A N/A N/A 27.15 °C 78.47 % 1,009.97 mbar 0.92 m/s 251.13 Deg 7.5 µg/m3
2022-08-03 02:00 3.31 µg/m3 2.02 µg/m3 N/A N/A N/A 27.39 °C 77.86 % 1,010.36 mbar 0.91 m/s 280.08 Deg 1.18 µg/m3
2022-08-03 01:00 4.34 µg/m3 2.32 µg/m3 N/A N/A N/A 27.54 °C 78.68 % 1,010.47 mbar 0.77 m/s 346.39 Deg 0.68 µg/m3
2022-08-03 00:00 5.6 µg/m3 2.86 µg/m3 N/A N/A N/A 27.78 °C 76.74 % 1,010.65 mbar 0.41 m/s 318.14 Deg 2.23 µg/m3
2022-08-02 23:00 5.36 µg/m3 2.51 µg/m3 N/A N/A N/A 27.83 °C 76.9 % 1,010.80 mbar 0.48 m/s 303.28 Deg 0.64 µg/m3
2022-08-02 22:00 4.95 µg/m3 2.58 µg/m3 N/A N/A N/A 28.15 °C 78.25 % 1,010.86 mbar 0.56 m/s 255.08 Deg 1.6 µg/m3
2022-08-02 21:00 7.13 µg/m3 2.13 µg/m3 N/A N/A N/A 28.63 °C 74.59 % 1,010.69 mbar 0.72 m/s 250.84 Deg 0.95 µg/m3
2022-08-02 20:00 18.34 µg/m3 1.94 µg/m3 N/A N/A N/A 28.77 °C 72.63 % 1,010.17 mbar 0.97 m/s 335.33 Deg 1.32 µg/m3
2022-08-02 19:00 6.86 µg/m3 2.11 µg/m3 N/A N/A N/A 29.69 °C 71.08 % 1,009.97 mbar 1.08 m/s 336.84 Deg 1.34 µg/m3
2022-08-02 18:00 11.97 µg/m3 2.31 µg/m3 N/A N/A N/A 30.47 °C 67.63 % 1,009.83 mbar 1.2 m/s 335.53 Deg 3.74 µg/m3
2022-08-02 17:00 7.36 µg/m3 2.09 µg/m3 N/A N/A N/A 31.28 °C 63.39 % 1,009.85 mbar 0.82 m/s 324.06 Deg 1.55 µg/m3
2022-08-02 16:00 8.84 µg/m3 2.29 µg/m3 N/A N/A N/A 31.35 °C 61.07 % 1,009.81 mbar 0.88 m/s 249.21 Deg 2.87 µg/m3
2022-08-02 15:00 9.23 µg/m3 2.36 µg/m3 N/A N/A N/A 30.54 °C 63.15 % 1,009.87 mbar 2 m/s 316.42 Deg 6.74 µg/m3
2022-08-02 14:00 11.78 µg/m3 2.37 µg/m3 N/A N/A N/A 30.52 °C 61.78 % 1,010.11 mbar 2.31 m/s 260.25 Deg 4.93 µg/m3
2022-08-02 13:00 13.6 µg/m3 2.73 µg/m3 N/A N/A N/A 30.34 °C 61.69 % 1,010.41 mbar 1.2 m/s 237.71 Deg 6.91 µg/m3
2022-08-02 12:00 15.07 µg/m3 2.62 µg/m3 N/A N/A N/A 29.43 °C 69.61 % 1,010.57 mbar 1.07 m/s 207.37 Deg 2.41 µg/m3
2022-08-02 11:00 14.85 µg/m3 2.76 µg/m3 N/A N/A N/A 28.84 °C 71.31 % 1,010.91 mbar 0.93 m/s 238.07 Deg 2.65 µg/m3
2022-08-02 10:00 11.58 µg/m3 2.39 µg/m3 N/A N/A N/A 29.07 °C 71.91 % 1,010.80 mbar 0.88 m/s 203.93 Deg 4.89 µg/m3
2022-08-02 09:00 11.8 µg/m3 2.48 µg/m3 N/A N/A N/A 28.84 °C 72.75 % 1,010.72 mbar 0.79 m/s 173.96 Deg 5.25 µg/m3
2022-08-02 08:00 25.71 µg/m3 2.87 µg/m3 N/A N/A N/A 28.36 °C 73.84 % 1,010.68 mbar 0.73 m/s 172.49 Deg 5.27 µg/m3
2022-08-02 07:00 58.73 µg/m3 3 µg/m3 N/A N/A N/A 27.04 °C 79.12 % 1,010.41 mbar 1.53 m/s 211.4 Deg 25.82 µg/m3
2022-08-02 06:00 58.88 µg/m3 2.39 µg/m3 N/A N/A N/A 27.01 °C 81.43 % 1,010.15 mbar 1.47 m/s 210.63 Deg 18.49 µg/m3
2022-08-02 05:00 42.08 µg/m3 2.59 µg/m3 N/A N/A N/A 27.03 °C 79.86 % 1,009.87 mbar 0.42 m/s 229.72 Deg 3.8 µg/m3
2022-08-02 04:00 19.11 µg/m3 2.24 µg/m3 N/A N/A N/A 26.87 °C 81.37 % 1,009.84 mbar 1.4 m/s 207.38 Deg 1.13 µg/m3
2022-08-02 03:00 21.26 µg/m3 2.34 µg/m3 N/A N/A N/A 27.31 °C 80.91 % 1,010.01 mbar 2.07 m/s 208.74 Deg 4.06 µg/m3
2022-08-02 02:00 17.09 µg/m3 2.2 µg/m3 N/A N/A N/A 27.47 °C 79.81 % 1,010.15 mbar 0.98 m/s 211.69 Deg 1.56 µg/m3
2022-08-02 01:00 25.98 µg/m3 1.94 µg/m3 N/A N/A N/A 27.61 °C 80.26 % 1,010.44 mbar 1.51 m/s 267.08 Deg 5.29 µg/m3
2022-08-02 00:00 18.49 µg/m3 2.05 µg/m3 N/A N/A N/A 27.97 °C 77.6 % 1,010.70 mbar 1.23 m/s 282.56 Deg 3.89 µg/m3
2022-08-01 23:00 17.29 µg/m3 2.7 µg/m3 N/A N/A N/A 28.12 °C 74.98 % 1,010.88 mbar 1.79 m/s 270.53 Deg 2.89 µg/m3
2022-08-01 22:00 30.31 µg/m3 2.4 µg/m3 N/A N/A N/A 28.45 °C 73.88 % 1,010.93 mbar 1.67 m/s 259.76 Deg 5.85 µg/m3
2022-08-01 21:00 13.09 µg/m3 2.21 µg/m3 N/A N/A N/A 28.58 °C 72.6 % 1,010.39 mbar 2.4 m/s 249.48 Deg 2.76 µg/m3
2022-08-01 20:00 22.71 µg/m3 2.18 µg/m3 N/A N/A N/A 28.86 °C 68.47 % 1,009.96 mbar 2.67 m/s 257.68 Deg 5.5 µg/m3
2022-08-01 19:00 11.01 µg/m3 2.68 µg/m3 N/A N/A N/A 29.19 °C 68.46 % 1,009.66 mbar 3.53 m/s 213.02 Deg 2.03 µg/m3
2022-08-01 18:00 13.19 µg/m3 3.21 µg/m3 N/A N/A N/A 29.56 °C 63.94 % 1,009.41 mbar 3.97 m/s 206.95 Deg 7.7 µg/m3
2022-08-01 17:00 14.39 µg/m3 2.97 µg/m3 N/A N/A N/A 29.87 °C 62.46 % 1,009.52 mbar 4.07 m/s 209.49 Deg 4.9 µg/m3
2022-08-01 16:00 16.78 µg/m3 2.14 µg/m3 N/A N/A N/A 30.26 °C 62.02 % 1,009.63 mbar 3.37 m/s 208.2 Deg 5.94 µg/m3
2022-08-01 15:00 16.22 µg/m3 1.6 µg/m3 N/A N/A N/A 31.13 °C 60.48 % 1,009.77 mbar 0.99 m/s 264.12 Deg 3.99 µg/m3
2022-08-01 14:00 8.92 µg/m3 1.51 µg/m3 N/A N/A N/A 30.36 °C 66.43 % 1,010.02 mbar 1.23 m/s 232.76 Deg 2.86 µg/m3
2022-08-01 13:00 7.32 µg/m3 1.02 µg/m3 N/A N/A N/A 30.05 °C 66.65 % 1,010.51 mbar 1.1 m/s 236.85 Deg 2.66 µg/m3
2022-08-01 12:00 6.96 µg/m3 1.73 µg/m3 N/A N/A N/A 29.91 °C 69.52 % 1,010.89 mbar 0.86 m/s 304.79 Deg 2.42 µg/m3
2022-08-01 11:00 7.5 µg/m3 1.66 µg/m3 N/A N/A N/A 29.49 °C 71.96 % 1,010.83 mbar 1.09 m/s 175.76 Deg 1.86 µg/m3
2022-08-01 10:00 12.79 µg/m3 1.72 µg/m3 N/A N/A N/A 29.32 °C 74.3 % 1,010.76 mbar 0.67 m/s 298.31 Deg 2.43 µg/m3
2022-08-01 09:00 20.93 µg/m3 1.74 µg/m3 N/A N/A N/A 28.85 °C 76.56 % 1,010.52 mbar 0.87 m/s 178.41 Deg 6.49 µg/m3
2022-08-01 08:00 40.34 µg/m3 1.55 µg/m3 N/A N/A N/A 28.44 °C 75.97 % 1,010.30 mbar 0.72 m/s 303.7 Deg 9.83 µg/m3
2022-08-01 07:00 0 µg/m3 0 µg/m3 N/A N/A N/A 27.62 °C 81.3 % 1,010.07 mbar 0.47 m/s 225.48 Deg 0 µg/m3
2022-08-01 06:00 20.28 µg/m3 1.64 µg/m3 N/A N/A N/A 27.32 °C 83.62 % 1,009.75 mbar 0.41 m/s 264.83 Deg 1.37 µg/m3
2022-08-01 05:00 14.64 µg/m3 2.5 µg/m3 N/A N/A N/A 27.32 °C 83.68 % 1,009.64 mbar 0.26 m/s 326.52 Deg 0.88 µg/m3
2022-08-01 04:00 22.67 µg/m3 1.89 µg/m3 N/A N/A N/A 27.62 °C 83.43 % 1,009.52 mbar 0.46 m/s 290.95 Deg 2.93 µg/m3
2022-08-01 03:00 27.25 µg/m3 2.83 µg/m3 N/A N/A N/A 27.83 °C 82 % 1,009.56 mbar 0.52 m/s 239.98 Deg 6.92 µg/m3
2022-08-01 02:00 25.7 µg/m3 2.71 µg/m3 N/A N/A N/A 27.87 °C 80.51 % 1,009.61 mbar 0.62 m/s 213.78 Deg 2.46 µg/m3
2022-08-01 01:00 11.05 µg/m3 2.76 µg/m3 N/A N/A N/A 27.96 °C 80.74 % 1,009.84 mbar 0.24 m/s 96.41 Deg 1.93 µg/m3
2022-08-01 00:00 8.95 µg/m3 2.62 µg/m3 N/A N/A N/A 28.09 °C 78.46 % 1,010.12 mbar 0.35 m/s 222.89 Deg 0.37 µg/m3
2022-07-31 23:00 19.4 µg/m3 2.92 µg/m3 N/A N/A N/A 28.11 °C 79.18 % 1,010.19 mbar 0.59 m/s 253.02 Deg 1.42 µg/m3
2022-07-31 22:00 14.24 µg/m3 2.6 µg/m3 N/A N/A N/A 28.58 °C 78.15 % 1,010.29 mbar 0.39 m/s 233.94 Deg 1.22 µg/m3
2022-07-31 21:00 14.34 µg/m3 2.75 µg/m3 N/A N/A N/A 29.03 °C 73.83 % 1,010.07 mbar 0.54 m/s 219.82 Deg 1.31 µg/m3
2022-07-31 20:00 20.48 µg/m3 2.81 µg/m3 N/A N/A N/A 29.09 °C 70.1 % 1,009.66 mbar 0.62 m/s 250.43 Deg 2.49 µg/m3
2022-07-31 19:00 14.56 µg/m3 2.75 µg/m3 N/A N/A N/A 29.39 °C 70.93 % 1,009.36 mbar 2.43 m/s 269.9 Deg 2.15 µg/m3
2022-07-31 18:00 23.64 µg/m3 3.05 µg/m3 N/A N/A N/A 30.25 °C 68.06 % 1,009.20 mbar 4.76 m/s 239.3 Deg 7.95 µg/m3
2022-07-31 17:00 16.75 µg/m3 2.85 µg/m3 N/A N/A N/A 31.52 °C 61.47 % 1,009.64 mbar 2.45 m/s 188.22 Deg 3.75 µg/m3
2022-07-31 16:00 10.56 µg/m3 2.5 µg/m3 N/A N/A N/A 31.93 °C 59.99 % 1,009.97 mbar 1.02 m/s 192.6 Deg 2.56 µg/m3
2022-07-31 15:00 7.38 µg/m3 2.85 µg/m3 N/A N/A N/A 31.08 °C 65.77 % 1,010.36 mbar 0.87 m/s 137.16 Deg 2.76 µg/m3
2022-07-31 14:00 5.98 µg/m3 2.63 µg/m3 N/A N/A N/A 30.99 °C 70.17 % 1,010.87 mbar 0.77 m/s 241.32 Deg 2.54 µg/m3
2022-07-31 13:00 5.89 µg/m3 2.83 µg/m3 N/A N/A N/A 30.58 °C 69.58 % 1,011.18 mbar 0.96 m/s 169.03 Deg 1.8 µg/m3
2022-07-31 12:00 6.34 µg/m3 3 µg/m3 N/A N/A N/A 30.32 °C 72.11 % 1,011.36 mbar 0.63 m/s 243.73 Deg 1.83 µg/m3
2022-07-31 11:00 9.3 µg/m3 3.2 µg/m3 N/A N/A N/A 29.86 °C 76.68 % 1,011.47 mbar 0.65 m/s 295.49 Deg 2.71 µg/m3
2022-07-31 10:00 10.26 µg/m3 2.94 µg/m3 N/A N/A N/A 29.94 °C 71.89 % 1,011.43 mbar 0.97 m/s 209.63 Deg 2.44 µg/m3
2022-07-31 09:00 7.74 µg/m3 3.03 µg/m3 N/A N/A N/A 29.35 °C 68.64 % 1,011.11 mbar 0.92 m/s 330.38 Deg 1.3 µg/m3
2022-07-31 08:00 8.48 µg/m3 2.96 µg/m3 N/A N/A N/A 28.76 °C 76.65 % 1,010.62 mbar 1.73 m/s 340.36 Deg 1.79 µg/m3
2022-07-31 07:00 14.99 µg/m3 2.9 µg/m3 N/A N/A N/A 27.95 °C 80.93 % 1,010.32 mbar 1.49 m/s 332.78 Deg 2.82 µg/m3
2022-07-31 06:00 16.72 µg/m3 2.98 µg/m3 N/A N/A N/A 27.56 °C 82.44 % 1,009.94 mbar 1.97 m/s 298.18 Deg 1.24 µg/m3
2022-07-31 05:00 16.79 µg/m3 3.14 µg/m3 N/A N/A N/A 28.01 °C 76.55 % 1,009.73 mbar 2.09 m/s 283.64 Deg 1.49 µg/m3
2022-07-31 04:00 16.92 µg/m3 4.25 µg/m3 N/A N/A N/A 28.18 °C 73.02 % 1,009.81 mbar 1.99 m/s 236.08 Deg 3.22 µg/m3
2022-07-31 03:00 16.45 µg/m3 4.36 µg/m3 N/A N/A N/A 28.51 °C 71.52 % 1,010.05 mbar 2.81 m/s 203.21 Deg 1.25 µg/m3
2022-07-31 02:00 8.02 µg/m3 4.08 µg/m3 N/A N/A N/A 28.43 °C 72.67 % 1,010.37 mbar 3.59 m/s 219.37 Deg 0.47 µg/m3
2022-07-31 01:00 7.63 µg/m3 2.9 µg/m3 N/A N/A N/A 28.39 °C 75.39 % 1,010.99 mbar 2.83 m/s 217.14 Deg 0.35 µg/m3
2022-07-31 00:00 15.63 µg/m3 3.15 µg/m3 N/A N/A N/A 28.31 °C 77.74 % 1,011.31 mbar 4.44 m/s 206.91 Deg 1.01 µg/m3
2022-07-30 23:00 17.58 µg/m3 3.33 µg/m3 N/A N/A N/A 28.42 °C 78.43 % 1,011.53 mbar 5.15 m/s 233.16 Deg 4.78 µg/m3
2022-07-30 22:00 7.3 µg/m3 4.03 µg/m3 N/A N/A N/A 28.53 °C 80.76 % 1,011.61 mbar 4.54 m/s 238.28 Deg 0.72 µg/m3
2022-07-30 21:00 12.15 µg/m3 4.26 µg/m3 N/A N/A N/A 29.05 °C 77.47 % 1,011.54 mbar 4.15 m/s 237.38 Deg 11.57 µg/m3
2022-07-30 20:00 46.72 µg/m3 3.94 µg/m3 N/A N/A N/A 29.64 °C 70.67 % 1,011.34 mbar 3.37 m/s 248.28 Deg 59.52 µg/m3
2022-07-30 19:00 42.08 µg/m3 3.47 µg/m3 N/A N/A N/A 30.53 °C 61.7 % 1,011.08 mbar 3.92 m/s 265.82 Deg 31.84 µg/m3
2022-07-30 18:00 51.03 µg/m3 3.23 µg/m3 N/A N/A N/A 31.61 °C 52.08 % 1,010.77 mbar 3.91 m/s 244.89 Deg 41.34 µg/m3
2022-07-30 17:00 27.75 µg/m3 2.02 µg/m3 N/A N/A N/A 31.77 °C 53.05 % 1,010.70 mbar 5.17 m/s 215.28 Deg 46.89 µg/m3
2022-07-30 16:00 26.5 µg/m3 1.71 µg/m3 N/A N/A N/A 31.91 °C 53.31 % 1,011.09 mbar 4.94 m/s 220.35 Deg 26.93 µg/m3
2022-07-30 15:00 55.58 µg/m3 1.94 µg/m3 N/A N/A N/A 33.37 °C 37.99 % 1,011.31 mbar 3.86 m/s 232.53 Deg 89.46 µg/m3
2022-07-30 14:00 28.66 µg/m3 1.14 µg/m3 N/A N/A N/A 32.91 °C 44.62 % 1,011.48 mbar 3.13 m/s 247.06 Deg 37.97 µg/m3
2022-07-30 13:00 12.39 µg/m3 0.84 µg/m3 N/A N/A N/A 31.46 °C 67.23 % 1,011.65 mbar 1.12 m/s 279.5 Deg 3.24 µg/m3
2022-07-30 12:00 12.2 µg/m3 1.53 µg/m3 N/A N/A N/A 30.77 °C 70.81 % 1,011.83 mbar 1.28 m/s 319.17 Deg 2.97 µg/m3
2022-07-30 11:00 14.75 µg/m3 2.72 µg/m3 N/A N/A N/A 30.45 °C 69.9 % 1,012.04 mbar 1.41 m/s 320.02 Deg 5.43 µg/m3
2022-07-30 10:00 23.33 µg/m3 2.98 µg/m3 N/A N/A N/A 30.65 °C 66.54 % 1,012.00 mbar 1.37 m/s 291.06 Deg 8.92 µg/m3
2022-07-30 09:00 35.18 µg/m3 3.26 µg/m3 N/A N/A N/A 30.6 °C 50.8 % 1,011.78 mbar 3.08 m/s 269.58 Deg 23.65 µg/m3
2022-07-30 08:00 35.56 µg/m3 3.11 µg/m3 N/A N/A N/A 28.92 °C 67.22 % 1,011.61 mbar 2.19 m/s 261.05 Deg 24.57 µg/m3
2022-07-30 07:00 39.87 µg/m3 3.23 µg/m3 N/A N/A N/A 27.78 °C 79.55 % 1,011.56 mbar 2.02 m/s 248.99 Deg 35.34 µg/m3
2022-07-30 06:00 34.91 µg/m3 2.95 µg/m3 N/A N/A N/A 27.55 °C 81.41 % 1,011.07 mbar 2.15 m/s 256.84 Deg 20.93 µg/m3
2022-07-30 05:00 25.17 µg/m3 3.15 µg/m3 N/A N/A N/A 27.69 °C 81.49 % 1,010.80 mbar 2.78 m/s 251.32 Deg 8.63 µg/m3
2022-07-30 04:00 39.55 µg/m3 3.19 µg/m3 N/A N/A N/A 27.89 °C 76.45 % 1,010.94 mbar 1.08 m/s 215.56 Deg 11.58 µg/m3
2022-07-30 03:00 33.08 µg/m3 2.43 µg/m3 N/A N/A N/A 28 °C 71.97 % 1,011.12 mbar 1.27 m/s 206.26 Deg 3.75 µg/m3
2022-07-30 02:00 32.37 µg/m3 -42.11 µg/m3 N/A N/A N/A 28.47 °C 65.91 % 1,011.52 mbar 1.94 m/s 213.87 Deg 3.5 µg/m3
2022-07-30 01:00 45.58 µg/m3 3.6 µg/m3 N/A N/A N/A 28.66 °C 64.46 % 1,011.93 mbar 1.85 m/s 207.93 Deg 14.14 µg/m3
2022-07-30 00:00 35.81 µg/m3 4.21 µg/m3 N/A N/A N/A 29.29 °C 60.73 % 1,012.36 mbar 1.56 m/s 218.03 Deg 3.67 µg/m3
2022-07-29 23:00 22.11 µg/m3 3.5 µg/m3 N/A N/A N/A 29.91 °C 52.69 % 1,012.34 mbar 2.09 m/s 233.81 Deg 1.7 µg/m3
2022-07-29 22:00 26.09 µg/m3 3.37 µg/m3 N/A N/A N/A 30.23 °C 53.44 % 1,012.36 mbar 1.59 m/s 215.86 Deg 0.85 µg/m3
2022-07-29 21:00 25.71 µg/m3 3.54 µg/m3 N/A N/A N/A 30.07 °C 60.86 % 1,012.16 mbar 2.33 m/s 216.18 Deg 3.05 µg/m3
2022-07-29 20:00 14.87 µg/m3 2.64 µg/m3 N/A N/A N/A 29.89 °C 74.04 % 1,011.70 mbar 0.8 m/s 118.13 Deg 0.7 µg/m3
2022-07-29 19:00 8.49 µg/m3 2.93 µg/m3 N/A N/A N/A 30.68 °C 73.48 % 1,011.58 mbar 0.74 m/s 30.58 Deg 0.76 µg/m3
2022-07-29 18:00 9.49 µg/m3 3.05 µg/m3 N/A N/A N/A 31.54 °C 68 % 1,011.40 mbar 0.69 m/s 226.11 Deg 1.38 µg/m3
2022-07-29 17:00 12.08 µg/m3 3.52 µg/m3 N/A N/A N/A 32.04 °C 64 % 1,011.50 mbar 0.76 m/s 226.43 Deg 2.85 µg/m3
2022-07-29 16:00 8.6 µg/m3 3.6 µg/m3 N/A N/A N/A 31.9 °C 60.84 % 1,011.85 mbar 0.87 m/s 134.74 Deg 2.09 µg/m3
2022-07-29 15:00 8.12 µg/m3 2.46 µg/m3 N/A N/A N/A 31.36 °C 66.23 % 1,012.09 mbar 1.04 m/s 202.49 Deg 2.9 µg/m3
2022-07-29 14:00 6.09 µg/m3 2.46 µg/m3 N/A N/A N/A 30.98 °C 68.55 % 1,012.30 mbar 0.97 m/s 198.95 Deg 1.54 µg/m3
2022-07-29 13:00 7.19 µg/m3 2.18 µg/m3 N/A N/A N/A 30.39 °C 71.55 % 1,012.38 mbar 1.2 m/s 194.37 Deg 2.11 µg/m3
2022-07-29 12:00 5.94 µg/m3 3.04 µg/m3 N/A N/A N/A 30.04 °C 70.91 % 1,012.47 mbar 1.06 m/s 188.04 Deg 2.44 µg/m3
2022-07-29 11:00 10.09 µg/m3 2.6 µg/m3 N/A N/A N/A 29.79 °C 72.41 % 1,012.54 mbar 0.93 m/s 169.35 Deg 3.1 µg/m3
2022-07-29 10:00 11.91 µg/m3 2.72 µg/m3 N/A N/A N/A 29.49 °C 74.65 % 1,012.38 mbar 0.77 m/s 191.67 Deg 4.04 µg/m3
2022-07-29 09:00 18.79 µg/m3 2.79 µg/m3 N/A N/A N/A 29.54 °C 74.61 % 1,012.20 mbar 0.61 m/s 253.78 Deg 4.82 µg/m3
2022-07-29 08:00 38.62 µg/m3 2.9 µg/m3 N/A N/A N/A 28.94 °C 73.95 % 1,011.77 mbar 0.48 m/s 263.43 Deg 7.64 µg/m3
2022-07-29 07:00 9.14 µg/m3 3.02 µg/m3 N/A N/A N/A 27.69 °C 85.07 % 1,011.36 mbar 0.47 m/s 280.16 Deg 1.06 µg/m3
2022-07-29 06:00 10.16 µg/m3 2.61 µg/m3 N/A N/A N/A 27.34 °C 88.89 % 1,010.78 mbar 0.48 m/s 106.77 Deg 1.44 µg/m3
2022-07-29 05:00 6.2 µg/m3 3.3 µg/m3 N/A N/A N/A 27.44 °C 89.21 % 1,010.32 mbar 0.66 m/s 255.72 Deg 0.34 µg/m3
2022-07-29 04:00 7.11 µg/m3 2.95 µg/m3 N/A N/A N/A 27.54 °C 90.24 % 1,010.31 mbar 1.09 m/s 158.22 Deg 0.35 µg/m3
2022-07-29 03:00 11.11 µg/m3 2.79 µg/m3 N/A N/A N/A 27.6 °C 91.89 % 1,010.26 mbar 0.95 m/s 179.76 Deg 1.03 µg/m3
2022-07-29 02:00 4.48 µg/m3 3 µg/m3 N/A N/A N/A 27.8 °C 91.63 % 1,010.40 mbar 1.13 m/s 155.46 Deg 0.34 µg/m3
2022-07-29 01:00 7.02 µg/m3 3.83 µg/m3 N/A N/A N/A 27.95 °C 90.25 % 1,010.72 mbar 1.34 m/s 154.8 Deg 0.3 µg/m3
2022-07-29 00:00 7.13 µg/m3 2.76 µg/m3 N/A N/A N/A 28.12 °C 88.46 % 1,011.12 mbar 1.13 m/s 154.61 Deg 0.25 µg/m3
2022-07-28 23:00 17.65 µg/m3 3.19 µg/m3 N/A N/A N/A 28.31 °C 86.85 % 1,011.17 mbar 0.8 m/s 197.21 Deg 3.9 µg/m3
2022-07-28 22:00 6.4 µg/m3 2.96 µg/m3 N/A N/A N/A 28.45 °C 86.97 % 1,011.10 mbar 0.57 m/s 189.16 Deg 0.76 µg/m3
2022-07-28 21:00 9.65 µg/m3 3.13 µg/m3 N/A N/A N/A 28.68 °C 86.53 % 1,010.67 mbar 0.73 m/s 170.47 Deg 0.54 µg/m3
2022-07-28 20:00 8.77 µg/m3 3.49 µg/m3 N/A N/A N/A 29.19 °C 84.02 % 1,009.80 mbar 0.77 m/s 145.53 Deg 1.61 µg/m3
2022-07-28 19:00 13.6 µg/m3 2.75 µg/m3 N/A N/A N/A 30.39 °C 77.08 % 1,009.21 mbar 0.4 m/s 303.57 Deg 3.56 µg/m3
2022-07-28 18:00 10.44 µg/m3 1.71 µg/m3 N/A N/A N/A 30.57 °C 74.09 % 1,008.60 mbar 0.61 m/s 161.52 Deg 5.96 µg/m3
2022-07-28 17:00 5.64 µg/m3 2.07 µg/m3 N/A N/A N/A 30.72 °C 75.02 % 1,008.69 mbar 0.87 m/s 154.18 Deg 1.49 µg/m3
2022-07-28 16:00 5.44 µg/m3 1.6 µg/m3 N/A N/A N/A 30.8 °C 73.55 % 1,008.83 mbar 1 m/s 274.98 Deg 1.2 µg/m3
2022-07-28 15:00 5.26 µg/m3 2.1 µg/m3 N/A N/A N/A 31.05 °C 72.68 % 1,008.87 mbar 0.77 m/s 248.73 Deg 2.97 µg/m3
2022-07-28 14:00 4.91 µg/m3 2.12 µg/m3 N/A N/A N/A 30.63 °C 73.16 % 1,009.06 mbar 0.78 m/s 298.67 Deg 1.4 µg/m3
2022-07-28 13:00 4.18 µg/m3 2.63 µg/m3 N/A N/A N/A 29.86 °C 74.38 % 1,009.26 mbar 0.97 m/s 214.28 Deg 1.08 µg/m3
2022-07-28 12:00 6.51 µg/m3 2.5 µg/m3 N/A N/A N/A 29.67 °C 73.34 % 1,009.33 mbar 1.03 m/s 237.23 Deg 1.61 µg/m3
2022-07-28 11:00 8.23 µg/m3 2.51 µg/m3 N/A N/A N/A 29.16 °C 76.8 % 1,009.10 mbar 1.09 m/s 253.22 Deg 2.26 µg/m3
2022-07-28 10:00 9.62 µg/m3 1.21 µg/m3 N/A N/A N/A 28.92 °C 78.5 % 1,008.63 mbar 0.99 m/s 170.12 Deg 2.83 µg/m3
2022-07-28 09:00 18.49 µg/m3 2.36 µg/m3 N/A N/A N/A 28.66 °C 79.29 % 1,008.34 mbar 1 m/s 242.44 Deg 7.85 µg/m3
2022-07-28 08:00 40.86 µg/m3 3.14 µg/m3 N/A N/A N/A 27.88 °C 81.9 % 1,007.89 mbar 1.88 m/s 252.24 Deg 27.88 µg/m3
2022-07-28 07:00 43.23 µg/m3 3.52 µg/m3 N/A N/A N/A 26.82 °C 87.8 % 1,007.27 mbar 3.56 m/s 207.08 Deg 41.02 µg/m3
2022-07-28 06:00 30.96 µg/m3 2.59 µg/m3 N/A N/A N/A 26.56 °C 88.8 % 1,006.81 mbar 3.22 m/s 200.61 Deg 3.11 µg/m3
2022-07-28 05:00 21.35 µg/m3 2.26 µg/m3 N/A N/A N/A 26.79 °C 87.69 % 1,006.38 mbar 2.69 m/s 212.29 Deg 10.14 µg/m3
2022-07-28 04:00 14.44 µg/m3 2.05 µg/m3 N/A N/A N/A 27.1 °C 86.58 % 1,006.62 mbar 1.46 m/s 276.08 Deg 1.53 µg/m3
2022-07-28 03:00 13.62 µg/m3 2.36 µg/m3 N/A N/A N/A 27.14 °C 86.11 % 1,007.18 mbar 2.63 m/s 284.13 Deg 2.5 µg/m3
2022-07-28 02:00 8.67 µg/m3 2.53 µg/m3 N/A N/A N/A 27.29 °C 84.95 % 1,007.43 mbar 2.91 m/s 244.57 Deg 0.54 µg/m3
2022-07-28 01:00 7.48 µg/m3 2.69 µg/m3 N/A N/A N/A 27.37 °C 86.56 % 1,007.64 mbar 3.97 m/s 220.41 Deg 0.16 µg/m3
2022-07-28 00:00 9.78 µg/m3 2.36 µg/m3 N/A N/A N/A 27.84 °C 83.37 % 1,007.93 mbar 3.04 m/s 226.46 Deg 0.32 µg/m3
2022-07-27 23:00 25.25 µg/m3 2.34 µg/m3 N/A N/A N/A 27.99 °C 83.04 % 1,007.75 mbar 3.17 m/s 226.95 Deg 3.27 µg/m3
2022-07-27 22:00 9.71 µg/m3 2.06 µg/m3 N/A N/A N/A 28.11 °C 83.39 % 1,007.61 mbar 3.16 m/s 244.95 Deg 1.06 µg/m3
2022-07-27 21:00 13.65 µg/m3 2.74 µg/m3 N/A N/A N/A 28.62 °C 80.63 % 1,006.98 mbar 3.31 m/s 228.29 Deg 2.32 µg/m3
2022-07-27 20:00 12.88 µg/m3 2.34 µg/m3 N/A N/A N/A 29.4 °C 75.54 % 1,006.52 mbar 3.23 m/s 234.68 Deg 0.66 µg/m3
2022-07-27 19:00 17.54 µg/m3 2.62 µg/m3 N/A N/A N/A 30.82 °C 60.69 % 1,006.19 mbar 0.79 m/s 210.68 Deg 0.98 µg/m3
2022-07-27 18:00 23.92 µg/m3 2.46 µg/m3 N/A N/A N/A 31.8 °C 51.94 % 1,006.03 mbar 0.89 m/s 197.16 Deg 2.97 µg/m3
2022-07-27 17:00 23.34 µg/m3 2.23 µg/m3 N/A N/A N/A 31.55 °C 64.4 % 1,006.08 mbar 1.04 m/s 168.57 Deg 4.75 µg/m3
2022-07-27 16:00 12.27 µg/m3 2.33 µg/m3 N/A N/A N/A 31.8 °C 64.84 % 1,006.38 mbar 0.83 m/s 229.03 Deg 2.73 µg/m3
2022-07-27 15:00 10.44 µg/m3 2.09 µg/m3 N/A N/A N/A 32.13 °C 61.07 % 1,006.91 mbar 0.73 m/s 243.87 Deg 2.01 µg/m3
2022-07-27 14:00 10.1 µg/m3 2.33 µg/m3 N/A N/A N/A 31.74 °C 62.57 % 1,007.23 mbar 0.73 m/s 277.3 Deg 2.39 µg/m3
2022-07-27 13:00 11.36 µg/m3 2 µg/m3 N/A N/A N/A 31.29 °C 61.15 % 1,007.57 mbar 0.68 m/s 308.91 Deg 2.35 µg/m3
2022-07-27 12:00 14.06 µg/m3 1.6 µg/m3 N/A N/A N/A 30.45 °C 66.58 % 1,007.83 mbar 0.63 m/s 313.26 Deg 3.88 µg/m3
2022-07-27 11:00 6.44 µg/m3 2.36 µg/m3 N/A N/A N/A 29.46 °C 75.89 % 1,007.88 mbar 0.88 m/s 320.92 Deg 1.41 µg/m3
2022-07-27 10:00 7.42 µg/m3 2.41 µg/m3 N/A N/A N/A 28.82 °C 81.63 % 1,007.61 mbar 0.91 m/s 241.59 Deg 2.25 µg/m3
2022-07-27 09:00 8.68 µg/m3 2.56 µg/m3 N/A N/A N/A 28.34 °C 83.75 % 1,007.37 mbar 0.75 m/s 211.38 Deg 1.92 µg/m3
2022-07-27 08:00 14.27 µg/m3 2.45 µg/m3 N/A N/A N/A 27.79 °C 85.67 % 1,006.95 mbar 0.8 m/s 336.34 Deg 6.19 µg/m3
2022-07-27 07:00 15.21 µg/m3 2.07 µg/m3 N/A N/A N/A 27.24 °C 88.04 % 1,006.49 mbar 0.61 m/s 230.63 Deg 3.88 µg/m3
2022-07-27 06:00 11.77 µg/m3 1.8 µg/m3 N/A N/A N/A 27.13 °C 88.85 % 1,006.14 mbar 1.12 m/s 281.6 Deg 1.98 µg/m3
2022-07-27 05:00 32.38 µg/m3 2.05 µg/m3 N/A N/A N/A 27.27 °C 87.26 % 1,005.90 mbar 1.21 m/s 263.72 Deg 10.69 µg/m3
2022-07-27 04:00 19.87 µg/m3 2.29 µg/m3 N/A N/A N/A 27.42 °C 84.98 % 1,006.05 mbar 2.87 m/s 261.92 Deg 4.64 µg/m3
2022-07-27 03:00 12.28 µg/m3 2.07 µg/m3 N/A N/A N/A 27.7 °C 81.31 % 1,006.38 mbar 4.09 m/s 233.81 Deg 0.65 µg/m3
2022-07-27 02:00 18.53 µg/m3 1.25 µg/m3 N/A N/A N/A 27.82 °C 79.4 % 1,006.84 mbar 5.33 m/s 220.32 Deg 1.41 µg/m3
2022-07-27 01:00 13.6 µg/m3 0.95 µg/m3 N/A N/A N/A 28.05 °C 76.78 % 1,007.42 mbar 5.08 m/s 218.45 Deg 0.69 µg/m3
2022-07-27 00:00 13.9 µg/m3 0.5 µg/m3 N/A N/A N/A 28.47 °C 71.33 % 1,007.73 mbar 4.2 m/s 216.38 Deg 1.11 µg/m3
2022-07-26 23:00 28.8 µg/m3 1.28 µg/m3 N/A N/A N/A 28.66 °C 68.69 % 1,007.86 mbar 3.73 m/s 203.8 Deg 3.66 µg/m3
2022-07-26 22:00 16.73 µg/m3 1.52 µg/m3 N/A N/A N/A 29.03 °C 64.83 % 1,007.91 mbar 3.98 m/s 230.75 Deg 0.48 µg/m3
2022-07-26 21:00 22.18 µg/m3 1.74 µg/m3 N/A N/A N/A 28.71 °C 70.07 % 1,007.86 mbar 3.82 m/s 229.19 Deg 1.52 µg/m3
2022-07-26 20:00 11.83 µg/m3 1.55 µg/m3 N/A N/A N/A 28.86 °C 74.8 % 1,007.59 mbar 4.1 m/s 232.63 Deg 1.02 µg/m3
2022-07-26 19:00 17.91 µg/m3 1.88 µg/m3 N/A N/A N/A 29.71 °C 72.9 % 1,007.45 mbar 4.2 m/s 250.53 Deg 2.81 µg/m3
2022-07-26 18:00 33.7 µg/m3 1.69 µg/m3 N/A N/A N/A 30.69 °C 67.03 % 1,007.46 mbar 3.68 m/s 257.78 Deg 15.18 µg/m3
2022-07-26 17:00 20.58 µg/m3 2.06 µg/m3 N/A N/A N/A 31.89 °C 59.73 % 1,007.57 mbar 1.87 m/s 275.68 Deg 4.6 µg/m3
2022-07-26 16:00 16.9 µg/m3 2.2 µg/m3 N/A N/A N/A 32.58 °C 46.23 % 1,007.98 mbar 3.66 m/s 251.1 Deg 3.28 µg/m3
2022-07-26 15:00 11.59 µg/m3 2 µg/m3 N/A N/A N/A 32.49 °C 42.95 % 1,008.45 mbar 4.64 m/s 241.94 Deg 2.52 µg/m3
2022-07-26 14:00 11.2 µg/m3 1.39 µg/m3 N/A N/A N/A 33.24 °C 36.2 % 1,008.66 mbar 4.61 m/s 241.54 Deg 2.65 µg/m3
2022-07-26 13:00 12.61 µg/m3 2.68 µg/m3 N/A N/A N/A 33.49 °C 38.61 % 1,008.90 mbar 4.91 m/s 246.15 Deg 3.27 µg/m3
2022-07-26 12:00 15.56 µg/m3 2.88 µg/m3 N/A N/A N/A 33.43 °C 47.27 % 1,009.09 mbar 1.64 m/s 192.67 Deg 2.73 µg/m3
2022-07-26 11:00 23.31 µg/m3 2.22 µg/m3 N/A N/A N/A 32.84 °C 56.45 % 1,009.11 mbar 0.8 m/s 201.58 Deg 5.34 µg/m3
2022-07-26 10:00 22.58 µg/m3 1.91 µg/m3 N/A N/A N/A 32.08 °C 59.38 % 1,008.98 mbar 0.74 m/s 235.55 Deg 5.46 µg/m3
2022-07-26 09:00 22.3 µg/m3 2.36 µg/m3 N/A N/A N/A 30.76 °C 58.19 % 1,008.94 mbar 2.06 m/s 271.76 Deg 6.38 µg/m3
2022-07-26 08:00 28.79 µg/m3 2.05 µg/m3 N/A N/A N/A 28.37 °C 80.52 % 1,009.04 mbar 2.36 m/s 236.44 Deg 12.62 µg/m3
2022-07-26 07:00 16.99 µg/m3 1.98 µg/m3 N/A N/A N/A 27.52 °C 87.11 % 1,008.92 mbar 3.73 m/s 231.33 Deg 2.44 µg/m3
2022-07-26 06:00 19.12 µg/m3 1.9 µg/m3 N/A N/A N/A 27.29 °C 88.45 % 1,008.76 mbar 4.19 m/s 236.38 Deg 1.12 µg/m3
2022-07-26 05:00 21.31 µg/m3 2.06 µg/m3 N/A N/A N/A 27.31 °C 87.28 % 1,008.60 mbar 3.84 m/s 221.93 Deg 2.05 µg/m3
2022-07-26 04:00 12.61 µg/m3 2.64 µg/m3 N/A N/A N/A 27.4 °C 83.67 % 1,008.79 mbar 3.78 m/s 202.74 Deg 2.9 µg/m3
2022-07-26 03:00 24.55 µg/m3 2.57 µg/m3 N/A N/A N/A 27.66 °C 80.17 % 1,009.23 mbar 4.28 m/s 206.89 Deg 2.08 µg/m3
2022-07-26 02:00 29.59 µg/m3 2.59 µg/m3 N/A N/A N/A 27.97 °C 74.96 % 1,009.57 mbar 4.24 m/s 213.54 Deg 8.04 µg/m3
2022-07-26 01:00 14.64 µg/m3 2.7 µg/m3 N/A N/A N/A 28.35 °C 66.17 % 1,009.91 mbar 3.11 m/s 204.76 Deg 1.3 µg/m3
2022-07-26 00:00 26.89 µg/m3 2.4 µg/m3 N/A N/A N/A 29.19 °C 47.68 % 1,010.10 mbar 2.23 m/s 205.8 Deg 0.83 µg/m3
2022-07-25 23:00 33.75 µg/m3 2.23 µg/m3 N/A N/A N/A 29.79 °C 45.83 % 1,010.20 mbar 2.57 m/s 205.73 Deg 2.7 µg/m3
2022-07-25 22:00 42.26 µg/m3 1.73 µg/m3 N/A N/A N/A 30.41 °C 45.97 % 1,010.34 mbar 2.14 m/s 223.4 Deg 3.18 µg/m3
2022-07-25 21:00 47.75 µg/m3 1.97 µg/m3 N/A N/A N/A 31.01 °C 43.57 % 1,010.23 mbar 1.82 m/s 260.23 Deg 8.91 µg/m3
2022-07-25 20:00 29.21 µg/m3 1.6 µg/m3 N/A N/A N/A 30.83 °C 51.52 % 1,010.00 mbar 0.92 m/s 152.56 Deg 2.9 µg/m3
2022-07-25 19:00 25.37 µg/m3 1.69 µg/m3 N/A N/A N/A 31.5 °C 51.81 % 1,009.86 mbar 1.34 m/s 319.72 Deg 3.28 µg/m3
2022-07-25 18:00 41.02 µg/m3 1.85 µg/m3 N/A N/A N/A 32.68 °C 51.45 % 1,009.71 mbar 2.21 m/s 309.98 Deg 2.69 µg/m3
2022-07-25 17:00 43.85 µg/m3 2.12 µg/m3 N/A N/A N/A 33.99 °C 49.86 % 1,009.87 mbar 1.09 m/s 319.38 Deg 15.13 µg/m3
2022-07-25 16:00 21.01 µg/m3 1.53 µg/m3 N/A N/A N/A 33.85 °C 45.33 % 1,010.20 mbar 0.98 m/s 321.67 Deg 3.7 µg/m3
2022-07-25 15:00 14.99 µg/m3 2.07 µg/m3 N/A N/A N/A 32.58 °C 59.19 % 1,010.63 mbar 1.49 m/s 319.44 Deg 3.17 µg/m3
2022-07-25 14:00 12.15 µg/m3 2.2 µg/m3 N/A N/A N/A 31.72 °C 70.7 % 1,010.90 mbar 1.81 m/s 290.76 Deg 3.09 µg/m3
2022-07-25 13:00 11.27 µg/m3 2.28 µg/m3 N/A N/A N/A 30.73 °C 77.27 % 1,011.27 mbar 2.18 m/s 185.37 Deg 3.19 µg/m3
2022-07-25 12:00 11.22 µg/m3 2.3 µg/m3 N/A N/A N/A 31.88 °C 66.58 % 1,011.59 mbar 1.22 m/s 218.47 Deg 2.28 µg/m3
2022-07-25 11:00 11.3 µg/m3 1.72 µg/m3 N/A N/A N/A 31.35 °C 67.04 % 1,011.73 mbar 0.83 m/s 226.69 Deg 2.26 µg/m3
2022-07-25 10:00 24.65 µg/m3 1.64 µg/m3 N/A N/A N/A 30.66 °C 69.65 % 1,011.64 mbar 0.68 m/s 245.19 Deg 11.47 µg/m3
2022-07-25 09:00 39.32 µg/m3 2.07 µg/m3 N/A N/A N/A 31.23 °C 59.51 % 1,011.60 mbar 0.99 m/s 156.88 Deg 9.87 µg/m3
2022-07-25 08:00 58.56 µg/m3 2.92 µg/m3 N/A N/A N/A 29.07 °C 71.57 % 1,011.66 mbar 1.92 m/s 189.21 Deg 24.53 µg/m3
2022-07-25 07:00 85.92 µg/m3 3.63 µg/m3 N/A N/A N/A 26.99 °C 85.82 % 1,011.61 mbar 2.7 m/s 191.45 Deg 113.73 µg/m3
2022-07-25 06:00 45.62 µg/m3 2.59 µg/m3 N/A N/A N/A 26.33 °C 86.5 % 1,011.57 mbar 2.92 m/s 198.55 Deg 6.19 µg/m3
2022-07-25 05:00 29.94 µg/m3 1.96 µg/m3 N/A N/A N/A 26.4 °C 84.49 % 1,011.38 mbar 2.89 m/s 205.79 Deg 2.24 µg/m3
2022-07-25 04:00 29.49 µg/m3 2.46 µg/m3 N/A N/A N/A 26.57 °C 82.23 % 1,011.41 mbar 2.6 m/s 206.74 Deg 8.64 µg/m3
2022-07-25 03:00 34.99 µg/m3 2.36 µg/m3 N/A N/A N/A 26.89 °C 80.5 % 1,011.70 mbar 2.28 m/s 209.16 Deg 2.78 µg/m3
2022-07-25 02:00 20.22 µg/m3 2.31 µg/m3 N/A N/A N/A 27.13 °C 80.24 % 1,012.20 mbar 2.76 m/s 219.8 Deg 0.62 µg/m3
2022-07-25 01:00 8 µg/m3 1.61 µg/m3 N/A N/A N/A 27.27 °C 79.62 % 1,012.71 mbar 2.96 m/s 221.91 Deg 0.04 µg/m3
2022-07-25 00:00 15.85 µg/m3 1.85 µg/m3 N/A N/A N/A 27.56 °C 76.75 % 1,013.16 mbar 2.98 m/s 231.51 Deg 2.88 µg/m3
2022-07-24 23:00 17.93 µg/m3 2.26 µg/m3 N/A N/A N/A 27.77 °C 74.95 % 1,013.24 mbar 2.81 m/s 238.17 Deg 2.63 µg/m3
2022-07-24 22:00 36.86 µg/m3 2.85 µg/m3 N/A N/A N/A 28.09 °C 73.59 % 1,013.17 mbar 3.73 m/s 236.86 Deg 54.74 µg/m3
2022-07-24 21:00 78.58 µg/m3 3.43 µg/m3 N/A N/A N/A 28.22 °C 71.88 % 1,013.00 mbar 2.91 m/s 232.8 Deg 91.35 µg/m3
2022-07-24 20:00 43.21 µg/m3 2.68 µg/m3 N/A N/A N/A 28.53 °C 71.57 % 1,012.72 mbar 3.61 m/s 264.46 Deg 16.29 µg/m3
2022-07-24 19:00 37.79 µg/m3 2.39 µg/m3 N/A N/A N/A 29.39 °C 65.67 % 1,012.53 mbar 4.43 m/s 258.34 Deg 31.83 µg/m3
2022-07-24 18:00 29.63 µg/m3 1.59 µg/m3 N/A N/A N/A 30.06 °C 60.16 % 1,012.44 mbar 6.02 m/s 249.52 Deg 14.09 µg/m3
2022-07-24 17:00 28.03 µg/m3 1.88 µg/m3 N/A N/A N/A 30.35 °C 58.11 % 1,012.61 mbar 7.57 m/s 236.63 Deg 25.73 µg/m3
2022-07-24 16:00 13.15 µg/m3 2.13 µg/m3 N/A N/A N/A 30.66 °C 55.27 % 1,013.08 mbar 7.64 m/s 233.96 Deg 5.23 µg/m3
2022-07-24 15:00 13.33 µg/m3 0.67 µg/m3 N/A N/A N/A 31.24 °C 47.5 % 1,013.52 mbar 6.55 m/s 230.88 Deg 4.89 µg/m3
2022-07-24 14:00 14.75 µg/m3 1.61 µg/m3 N/A N/A N/A 31.3 °C 48.02 % 1,014.09 mbar 5.47 m/s 236.75 Deg 5.19 µg/m3
2022-07-24 13:00 13.93 µg/m3 1.93 µg/m3 N/A N/A N/A 30.94 °C 49.23 % 1,014.42 mbar 5.35 m/s 259.87 Deg 5.08 µg/m3
2022-07-24 12:00 29.31 µg/m3 1.86 µg/m3 N/A N/A N/A 30.63 °C 53.19 % 1,014.68 mbar 5.25 m/s 250.13 Deg 17.37 µg/m3
2022-07-24 11:00 32.38 µg/m3 2.42 µg/m3 N/A N/A N/A 30.6 °C 52.18 % 1,014.85 mbar 5.07 m/s 253.02 Deg 23.53 µg/m3
2022-07-24 10:00 41.27 µg/m3 2.22 µg/m3 N/A N/A N/A 30.06 °C 53.92 % 1,014.74 mbar 5.08 m/s 241.21 Deg 29.47 µg/m3
2022-07-24 09:00 32.1 µg/m3 1.95 µg/m3 N/A N/A N/A 29.59 °C 54.25 % 1,014.61 mbar 4.14 m/s 261.81 Deg 14.43 µg/m3
2022-07-24 08:00 26.5 µg/m3 1.44 µg/m3 N/A N/A N/A 28.16 °C 66.28 % 1,014.53 mbar 2.86 m/s 261.53 Deg 11.79 µg/m3
2022-07-24 07:00 29.55 µg/m3 1.86 µg/m3 N/A N/A N/A 26.92 °C 76.65 % 1,014.42 mbar 2.07 m/s 264.46 Deg 14.49 µg/m3
2022-07-24 06:00 35.01 µg/m3 1.39 µg/m3 N/A N/A N/A 26.36 °C 83.35 % 1,014.38 mbar 2.2 m/s 264.57 Deg 11.91 µg/m3
2022-07-24 05:00 33.07 µg/m3 1.6 µg/m3 N/A N/A N/A 26.43 °C 84.01 % 1,014.19 mbar 2.26 m/s 270.43 Deg 8.64 µg/m3
2022-07-24 04:00 35.24 µg/m3 1.88 µg/m3 N/A N/A N/A 26.52 °C 85.05 % 1,014.21 mbar 1.89 m/s 264.63 Deg 11.91 µg/m3
2022-07-24 03:00 28.65 µg/m3 1.86 µg/m3 N/A N/A N/A 26.76 °C 79.78 % 1,014.33 mbar 1.33 m/s 257.24 Deg 11.72 µg/m3
2022-07-24 02:00 17.92 µg/m3 2.1 µg/m3 N/A N/A N/A 26.63 °C 81.7 % 1,014.68 mbar 1.91 m/s 216.79 Deg 0.92 µg/m3
2022-07-24 01:00 12.21 µg/m3 1.64 µg/m3 N/A N/A N/A 27.19 °C 78.72 % 1,015.13 mbar 2.12 m/s 215.23 Deg 0.36 µg/m3
2022-07-24 00:00 25.67 µg/m3 1.22 µg/m3 N/A N/A N/A 27.63 °C 73.28 % 1,015.41 mbar 2.06 m/s 261.37 Deg 4.93 µg/m3
2022-07-23 23:00 41.72 µg/m3 1.86 µg/m3 N/A N/A N/A 28.01 °C 70.04 % 1,015.51 mbar 2.48 m/s 265.97 Deg 13.69 µg/m3
2022-07-23 22:00 35.25 µg/m3 1.43 µg/m3 N/A N/A N/A 28.51 °C 62.65 % 1,015.48 mbar 1.99 m/s 266.86 Deg 10.71 µg/m3
2022-07-23 21:00 28.5 µg/m3 1.52 µg/m3 N/A N/A N/A 28.99 °C 55.35 % 1,015.20 mbar 2.47 m/s 253.98 Deg 5.35 µg/m3
2022-07-23 20:00 23.67 µg/m3 1.81 µg/m3 N/A N/A N/A 29.95 °C 41.37 % 1,014.76 mbar 3.32 m/s 253.98 Deg 4.35 µg/m3
2022-07-23 19:00 36.12 µg/m3 1.91 µg/m3 N/A N/A N/A 30.75 °C 37.5 % 1,014.59 mbar 4.46 m/s 260.88 Deg 11.33 µg/m3
2022-07-23 18:00 34.35 µg/m3 3.55 µg/m3 N/A N/A N/A 31.33 °C 34.54 % 1,014.39 mbar 4.78 m/s 272.57 Deg 33.85 µg/m3
2022-07-23 17:00 33.97 µg/m3 2.01 µg/m3 N/A N/A N/A 31.62 °C 41.28 % 1,014.60 mbar 3.61 m/s 267.8 Deg 20.17 µg/m3
2022-07-23 16:00 19.27 µg/m3 0.81 µg/m3 N/A N/A N/A 31.88 °C 42.72 % 1,014.77 mbar 3.37 m/s 271.94 Deg 5.08 µg/m3
2022-07-23 15:00 27.53 µg/m3 0.7 µg/m3 N/A N/A N/A 32.26 °C 43.15 % 1,014.78 mbar 3.07 m/s 263.25 Deg 6.78 µg/m3
2022-07-23 14:00 23.98 µg/m3 0.62 µg/m3 N/A N/A N/A 31.78 °C 51.7 % 1,014.97 mbar 1.85 m/s 285.35 Deg 3.1 µg/m3
2022-07-23 13:00 10.25 µg/m3 0.54 µg/m3 N/A N/A N/A 31.28 °C 60.19 % 1,015.15 mbar 1.39 m/s 288.4 Deg 1.75 µg/m3
2022-07-23 12:00 29.02 µg/m3 0.86 µg/m3 N/A N/A N/A 31.96 °C 47.39 % 1,015.47 mbar 1.66 m/s 237.55 Deg 11.53 µg/m3
2022-07-23 11:00 15.55 µg/m3 0.73 µg/m3 N/A N/A N/A 31.35 °C 55.82 % 1,015.51 mbar 1.31 m/s 270.46 Deg 4.68 µg/m3
2022-07-23 10:00 25.53 µg/m3 0.77 µg/m3 N/A N/A N/A 31.19 °C 51.29 % 1,015.39 mbar 0.91 m/s 222.18 Deg 5.42 µg/m3
2022-07-23 09:00 30.83 µg/m3 0.93 µg/m3 N/A N/A N/A 29.71 °C 55.97 % 1,015.34 mbar 1.35 m/s 263.36 Deg 11.09 µg/m3
2022-07-23 08:00 44.47 µg/m3 1.2 µg/m3 N/A N/A N/A 27.74 °C 72.63 % 1,015.29 mbar 0.64 m/s 228.67 Deg 12.99 µg/m3
2022-07-23 07:00 42.7 µg/m3 1.54 µg/m3 N/A N/A N/A 25.91 °C 85.29 % 1,014.95 mbar 1.65 m/s 198.88 Deg 17.92 µg/m3
2022-07-23 06:00 40.85 µg/m3 1.45 µg/m3 N/A N/A N/A 25.29 °C 83.11 % 1,014.77 mbar 1.75 m/s 203.76 Deg 13.64 µg/m3
2022-07-23 05:00 22.33 µg/m3 1.3 µg/m3 N/A N/A N/A 25.36 °C 77.35 % 1,014.59 mbar 2.11 m/s 203.56 Deg 3.32 µg/m3
2022-07-23 04:00 16.86 µg/m3 1.34 µg/m3 N/A N/A N/A 25.56 °C 71.02 % 1,014.46 mbar 2.15 m/s 212.07 Deg 1.17 µg/m3
2022-07-23 03:00 16.98 µg/m3 1.56 µg/m3 N/A N/A N/A 25.76 °C 79.9 % 1,014.58 mbar 1.93 m/s 212.74 Deg 0.63 µg/m3
2022-07-23 02:00 24.89 µg/m3 1.01 µg/m3 N/A N/A N/A 26.45 °C 83.38 % 1,014.68 mbar 2 m/s 212.22 Deg 3.02 µg/m3
2022-07-23 01:00 21.37 µg/m3 1.17 µg/m3 N/A N/A N/A 27.19 °C 81.11 % 1,014.83 mbar 1.22 m/s 218.58 Deg 1.44 µg/m3
2022-07-23 00:00 16.19 µg/m3 0.91 µg/m3 N/A N/A N/A 27.67 °C 78.1 % 1,014.91 mbar 0.89 m/s 274.29 Deg 1.47 µg/m3
2022-07-22 23:00 24.48 µg/m3 0.34 µg/m3 N/A N/A N/A 27.85 °C 77.41 % 1,015.10 mbar 1.06 m/s 276.01 Deg 4.58 µg/m3
2022-07-22 22:00 11.88 µg/m3 0.85 µg/m3 N/A N/A N/A 28.21 °C 76.83 % 1,015.00 mbar 0.93 m/s 295.91 Deg 1.19 µg/m3
2022-07-22 21:00 15.15 µg/m3 1.1 µg/m3 N/A N/A N/A 28.51 °C 73.29 % 1,014.56 mbar 1.3 m/s 302.31 Deg 4.21 µg/m3
2022-07-22 20:00 12.72 µg/m3 1.19 µg/m3 N/A N/A N/A 28.87 °C 72.39 % 1,014.09 mbar 0.93 m/s 326.53 Deg 2.6 µg/m3
2022-07-22 19:00 5.61 µg/m3 0.83 µg/m3 N/A N/A N/A 29.35 °C 73.16 % 1,013.92 mbar 1.5 m/s 336.73 Deg 0.38 µg/m3
2022-07-22 18:00 11.66 µg/m3 0.52 µg/m3 N/A N/A N/A 29.97 °C 69.86 % 1,013.89 mbar 1.6 m/s 333.3 Deg 2.69 µg/m3
2022-07-22 17:00 13.23 µg/m3 0.19 µg/m3 N/A N/A N/A 30.96 °C 65.72 % 1,013.93 mbar 1.08 m/s 284.15 Deg 1.8 µg/m3
2022-07-22 16:00 11.36 µg/m3 0.4 µg/m3 N/A N/A N/A 31.21 °C 67.74 % 1,013.99 mbar 0.64 m/s 262.25 Deg 2.06 µg/m3
2022-07-22 15:00 7.91 µg/m3 0.32 µg/m3 N/A N/A N/A 30.88 °C 71.03 % 1,014.28 mbar 0.65 m/s 316.43 Deg 1.88 µg/m3
2022-07-22 14:00 6.09 µg/m3 0.73 µg/m3 N/A N/A N/A 30.13 °C 74.75 % 1,014.54 mbar 0.83 m/s 205.01 Deg 1.39 µg/m3
2022-07-22 13:00 6.92 µg/m3 0.61 µg/m3 N/A N/A N/A 29.81 °C 74.9 % 1,014.72 mbar 0.77 m/s 296.05 Deg 1.99 µg/m3
2022-07-22 12:00 6.56 µg/m3 0.46 µg/m3 N/A N/A N/A 29.24 °C 76.83 % 1,014.93 mbar 0.89 m/s 227.88 Deg 2.23 µg/m3
2022-07-22 11:00 9.64 µg/m3 0.75 µg/m3 N/A N/A N/A 28.92 °C 77.15 % 1,014.94 mbar 1.08 m/s 207.98 Deg 2.14 µg/m3
2022-07-22 10:00 18.35 µg/m3 0.45 µg/m3 N/A N/A N/A 28.67 °C 77.02 % 1,014.79 mbar 0.77 m/s 189.91 Deg 3.69 µg/m3
2022-07-22 09:00 14.07 µg/m3 2.07 µg/m3 N/A N/A N/A 28.08 °C 80.18 % 1,014.61 mbar 0.84 m/s 181.64 Deg 2.23 µg/m3
2022-07-22 08:00 34.13 µg/m3 1.97 µg/m3 N/A N/A N/A 27.65 °C 79.7 % 1,014.28 mbar 0.73 m/s 207.33 Deg 9.17 µg/m3
2022-07-22 07:00 62.06 µg/m3 1.53 µg/m3 N/A N/A N/A 26.19 °C 76.26 % 1,013.91 mbar 1.84 m/s 200.13 Deg 30.03 µg/m3
2022-07-22 06:00 55.81 µg/m3 1.56 µg/m3 N/A N/A N/A 25.37 °C 75.59 % 1,013.62 mbar 1.77 m/s 203.63 Deg 23.49 µg/m3
2022-07-22 05:00 53.35 µg/m3 1.18 µg/m3 N/A N/A N/A 25.51 °C 78 % 1,013.35 mbar 1.64 m/s 212.96 Deg 22.78 µg/m3
2022-07-22 04:00 40.38 µg/m3 1.75 µg/m3 N/A N/A N/A 25.99 °C 78.27 % 1,013.23 mbar 1.13 m/s 207.37 Deg 1.51 µg/m3
2022-07-22 03:00 37.67 µg/m3 1.91 µg/m3 N/A N/A N/A 26.36 °C 78.8 % 1,013.34 mbar 1.2 m/s 215.91 Deg 1.21 µg/m3
2022-07-22 02:00 19.09 µg/m3 2.03 µg/m3 N/A N/A N/A 26.62 °C 77.41 % 1,013.54 mbar 0.95 m/s 197.14 Deg 0.22 µg/m3
2022-07-22 01:00 18.88 µg/m3 2.05 µg/m3 N/A N/A N/A 27.07 °C 75.25 % 1,013.98 mbar 1.16 m/s 200.7 Deg 0.47 µg/m3
2022-07-22 00:00 14.25 µg/m3 1.94 µg/m3 N/A N/A N/A 27.54 °C 72.92 % 1,014.30 mbar 0.86 m/s 246.73 Deg 0.38 µg/m3
2022-07-21 23:00 21.72 µg/m3 1.97 µg/m3 N/A N/A N/A 27.82 °C 71.41 % 1,014.43 mbar 1.14 m/s 269.93 Deg 3.34 µg/m3
2022-07-21 22:00 7.87 µg/m3 2.23 µg/m3 N/A N/A N/A 28.03 °C 70.16 % 1,014.47 mbar 0.74 m/s 286.78 Deg 0.65 µg/m3
2022-07-21 21:00 9.62 µg/m3 1.76 µg/m3 N/A N/A N/A 28.27 °C 69.68 % 1,014.18 mbar 0.51 m/s 315.5 Deg 1.54 µg/m3
2022-07-21 20:00 11.18 µg/m3 1.3 µg/m3 N/A N/A N/A 28.48 °C 66.66 % 1,013.86 mbar 0.91 m/s 337.47 Deg 4.18 µg/m3
2022-07-21 19:00 10.66 µg/m3 2.03 µg/m3 N/A N/A N/A 29.26 °C 64.02 % 1,013.71 mbar 1 m/s 322.08 Deg 1.47 µg/m3
2022-07-21 18:00 12.77 µg/m3 1.36 µg/m3 N/A N/A N/A 30.6 °C 61.51 % 1,013.56 mbar 0.61 m/s 317.25 Deg 3.35 µg/m3
2022-07-21 17:00 9.57 µg/m3 1.77 µg/m3 N/A N/A N/A 30.7 °C 63.03 % 1,013.93 mbar 0.73 m/s 227.53 Deg 1.47 µg/m3
2022-07-21 16:00 11.9 µg/m3 1.63 µg/m3 N/A N/A N/A 30.83 °C 62.87 % 1,014.28 mbar 0.74 m/s 231.33 Deg 1.78 µg/m3
2022-07-21 15:00 12.2 µg/m3 1.64 µg/m3 N/A N/A N/A 30.15 °C 65.81 % 1,014.47 mbar 1.25 m/s 192.63 Deg 2.74 µg/m3
2022-07-21 14:00 6.48 µg/m3 1.56 µg/m3 N/A N/A N/A 30.29 °C 64.11 % 1,014.59 mbar 0.94 m/s 193.83 Deg 1.4 µg/m3
2022-07-21 13:00 9.39 µg/m3 2.15 µg/m3 N/A N/A N/A 29.95 °C 63.28 % 1,014.75 mbar 0.85 m/s 218.94 Deg 1.81 µg/m3
2022-07-21 12:00 9.72 µg/m3 1.93 µg/m3 N/A N/A N/A 29.19 °C 67.9 % 1,015.10 mbar 1.39 m/s 155.09 Deg 2.29 µg/m3
2022-07-21 11:00 12.44 µg/m3 1.76 µg/m3 N/A N/A N/A 28.95 °C 67 % 1,015.28 mbar 0.75 m/s 240.78 Deg 2.62 µg/m3
2022-07-21 10:00 9.23 µg/m3 1.8 µg/m3 N/A N/A N/A 28.53 °C 71.95 % 1,015.31 mbar 0.89 m/s 336.25 Deg 2.01 µg/m3
2022-07-21 09:00 10.4 µg/m3 1.04 µg/m3 N/A N/A N/A 28.12 °C 75.74 % 1,015.29 mbar 0.69 m/s 269.83 Deg 3.03 µg/m3
2022-07-21 08:00 10.77 µg/m3 1.35 µg/m3 N/A N/A N/A 27.9 °C 75.86 % 1,015.19 mbar 0.88 m/s 279.44 Deg 2.29 µg/m3
2022-07-21 07:00 26.34 µg/m3 1.54 µg/m3 N/A N/A N/A 26.93 °C 74.5 % 1,014.66 mbar 1.08 m/s 285.73 Deg 3.73 µg/m3
2022-07-21 06:00 30.6 µg/m3 1.6 µg/m3 N/A N/A N/A 26.53 °C 77.15 % 1,014.33 mbar 1.34 m/s 276.45 Deg 4.14 µg/m3
2022-07-21 05:00 32.91 µg/m3 1.63 µg/m3 N/A N/A N/A 26.63 °C 76.87 % 1,014.18 mbar 1.06 m/s 266.8 Deg 2.03 µg/m3
2022-07-21 04:00 22.14 µg/m3 1.58 µg/m3 N/A N/A N/A 26.64 °C 77.94 % 1,014.10 mbar 0.79 m/s 249.67 Deg 0.6 µg/m3
2022-07-21 03:00 15.12 µg/m3 1.45 µg/m3 N/A N/A N/A 26.67 °C 77.53 % 1,014.30 mbar 1.07 m/s 218.4 Deg 1.59 µg/m3
2022-07-21 02:00 6.8 µg/m3 1.35 µg/m3 N/A N/A N/A 26.93 °C 76.69 % 1,014.47 mbar 1.39 m/s 212.53 Deg 0.08 µg/m3
2022-07-21 01:00 6.22 µg/m3 1.7 µg/m3 N/A N/A N/A 27.13 °C 75.74 % 1,014.73 mbar 0.56 m/s 231.77 Deg 0.41 µg/m3
2022-07-21 00:00 7.83 µg/m3 1.77 µg/m3 N/A N/A N/A 27.36 °C 75.56 % 1,015.07 mbar 0.3 m/s 327.49 Deg 0.29 µg/m3
2022-07-20 23:00 15.48 µg/m3 2.15 µg/m3 N/A N/A N/A 27.63 °C 74.52 % 1,015.33 mbar 0.3 m/s 168.94 Deg 1.54 µg/m3
2022-07-20 22:00 14.97 µg/m3 1.81 µg/m3 N/A N/A N/A 27.84 °C 72.8 % 1,015.33 mbar 0.4 m/s 157.75 Deg 0.92 µg/m3
2022-07-20 21:00 8.48 µg/m3 1.88 µg/m3 N/A N/A N/A 28.03 °C 71.16 % 1,015.00 mbar 0.45 m/s 100.17 Deg 1.05 µg/m3
2022-07-20 20:00 7.93 µg/m3 1.9 µg/m3 N/A N/A N/A 28.25 °C 68.84 % 1,014.73 mbar 0.57 m/s 98.81 Deg 0.52 µg/m3
2022-07-20 19:00 8.05 µg/m3 2.23 µg/m3 N/A N/A N/A 29.33 °C 62.47 % 1,014.60 mbar 0.65 m/s 98.43 Deg 0.53 µg/m3
2022-07-20 18:00 10.93 µg/m3 1.88 µg/m3 N/A N/A N/A 29.58 °C 62.29 % 1,014.48 mbar 1.26 m/s 173.63 Deg 1.79 µg/m3
2022-07-20 17:00 17.13 µg/m3 2.22 µg/m3 N/A N/A N/A 30.89 °C 58.68 % 1,014.35 mbar 1.51 m/s 248.78 Deg 3.59 µg/m3
2022-07-20 16:00 14.38 µg/m3 2.17 µg/m3 N/A N/A N/A 31.32 °C 54.22 % 1,014.80 mbar 1.54 m/s 214.03 Deg 2.04 µg/m3
2022-07-20 15:00 6.61 µg/m3 1.79 µg/m3 N/A N/A N/A 30.98 °C 57.15 % 1,015.14 mbar 0.88 m/s 250.93 Deg 1.24 µg/m3
2022-07-20 14:00 3.7 µg/m3 1.52 µg/m3 N/A N/A N/A 30.4 °C 58.79 % 1,015.50 mbar 0.88 m/s 289.8 Deg 0.62 µg/m3
2022-07-20 13:00 6.27 µg/m3 0.89 µg/m3 N/A N/A N/A 29.67 °C 61.78 % 1,015.88 mbar 1.12 m/s 264.53 Deg 1.24 µg/m3
2022-07-20 12:00 5.98 µg/m3 1.69 µg/m3 N/A N/A N/A 29.49 °C 61.78 % 1,016.14 mbar 0.92 m/s 244.58 Deg 1.05 µg/m3
2022-07-20 11:00 5.17 µg/m3 2.22 µg/m3 N/A N/A N/A 29.06 °C 62.3 % 1,016.01 mbar 0.97 m/s 172.13 Deg 0.47 µg/m3
2022-07-20 10:00 7.08 µg/m3 2.23 µg/m3 N/A N/A N/A 28.84 °C 60.46 % 1,015.87 mbar 0.93 m/s 214.1 Deg 1.58 µg/m3
2022-07-20 09:00 8.49 µg/m3 2.2 µg/m3 N/A N/A N/A 28.21 °C 66.87 % 1,015.46 mbar 0.78 m/s 265.61 Deg 1.55 µg/m3
2022-07-20 08:00 18.13 µg/m3 2.12 µg/m3 N/A N/A N/A 27.83 °C 71.61 % 1,015.24 mbar 0.74 m/s 272.77 Deg 7.02 µg/m3
2022-07-20 07:00 13.57 µg/m3 2.39 µg/m3 N/A N/A N/A 27.04 °C 78.5 % 1,014.84 mbar 0.73 m/s 283.37 Deg 1.58 µg/m3
2022-07-20 06:00 13.34 µg/m3 1.97 µg/m3 N/A N/A N/A 27.19 °C 77.14 % 1,014.39 mbar 0.61 m/s 174.83 Deg 1.39 µg/m3
2022-07-20 05:00 16.04 µg/m3 1.98 µg/m3 N/A N/A N/A 27.09 °C 74.59 % 1,014.03 mbar 0.24 m/s 197.17 Deg 0.35 µg/m3
2022-07-20 04:00 5.08 µg/m3 2.23 µg/m3 N/A N/A N/A 27.03 °C 74.74 % 1,013.85 mbar 0.26 m/s 100.51 Deg 0.22 µg/m3
2022-07-20 03:00 4.78 µg/m3 2.09 µg/m3 N/A N/A N/A 27.14 °C 73.29 % 1,013.82 mbar 0.24 m/s 230.35 Deg 0.11 µg/m3

It is to be noted that the data is provisional and subject to quality assurance procedures. For validated data kindly refer your request to contact.air@era.org.mt